DLH3W EDDF-KIAD
Flight info
| Callsign | DLH3W |
|---|---|
| Flight time | 8h 31m |
| Altitude | 36000 |
| Route | OBOKA3D/07C OBOKA Z28 DIBIR DCT BUDIP DCT RAVLO Y70 OTBED L60 PENIL M144 BAGSO DCT NEBIN/M083F370 NATG TUDEP/N0460F380 DCT JIGGS DCT YHZ DCT TUSKY/N0467F400 DCT BOS DCT BAF HYPER9 |
| Aircraft | A346/H-SDE2E3FGHIJ3J4J5M1P2RWXYZ/LB1D1 |
Departure
| Time | 2026-04-13 13:31 |
|---|---|
| Airport | Frankfurt Main Airport (EDDF) |
Arrival
| Time | 2026-04-13 22:03 |
|---|---|
| Airport | Washington Dulles International Airport (KIAD) |
| Time | Latitude | Longitude | Altitude | Speed | Heading |
|---|---|---|---|---|---|
| 2026-04-13 12:56 | 50.04696 | 8.56162 | 364 ft | 0 kts | 340° |
| 2026-04-13 13:16 | 50.04682 | 8.56170 | 366 ft | 4 kts | 336° |
| 2026-04-13 13:16 | 50.04659 | 8.56190 | 368 ft | 4 kts | 324° |
| 2026-04-13 13:17 | 50.04640 | 8.56216 | 368 ft | 4 kts | 307° |
| 2026-04-13 13:17 | 50.04629 | 8.56248 | 370 ft | 4 kts | 282° |
| 2026-04-13 13:17 | 50.04629 | 8.56281 | 370 ft | 3 kts | 252° |
| 2026-04-13 13:17 | 50.04627 | 8.56269 | 364 ft | 4 kts | 251° |
| 2026-04-13 13:18 | 50.04618 | 8.56230 | 366 ft | 4 kts | 250° |
| 2026-04-13 13:18 | 50.04608 | 8.56190 | 364 ft | 4 kts | 250° |
| 2026-04-13 13:18 | 50.04599 | 8.56151 | 364 ft | 4 kts | 249° |
| 2026-04-13 13:18 | 50.04589 | 8.56112 | 366 ft | 4 kts | 250° |
| 2026-04-13 13:19 | 50.04581 | 8.56075 | 369 ft | 1 kts | 250° |
| 2026-04-13 13:22 | 50.04578 | 8.56065 | 368 ft | 2 kts | 250° |
| 2026-04-13 13:22 | 50.04568 | 8.56023 | 364 ft | 6 kts | 248° |
| 2026-04-13 13:22 | 50.04540 | 8.55967 | 371 ft | 8 kts | 208° |
| 2026-04-13 13:23 | 50.04478 | 8.55934 | 369 ft | 10 kts | 198° |
| 2026-04-13 13:23 | 50.04399 | 8.55912 | 369 ft | 13 kts | 177° |
| 2026-04-13 13:23 | 50.04306 | 8.55949 | 367 ft | 13 kts | 162° |
| 2026-04-13 13:23 | 50.04231 | 8.55931 | 366 ft | 11 kts | 200° |
| 2026-04-13 13:24 | 50.04150 | 8.55940 | 366 ft | 11 kts | 160° |
| 2026-04-13 13:24 | 50.04069 | 8.55960 | 361 ft | 13 kts | 209° |
| 2026-04-13 13:24 | 50.04018 | 8.55823 | 362 ft | 16 kts | 249° |
| 2026-04-13 13:24 | 50.03977 | 8.55653 | 362 ft | 18 kts | 249° |
| 2026-04-13 13:25 | 50.03936 | 8.55483 | 364 ft | 16 kts | 250° |
| 2026-04-13 13:25 | 50.03897 | 8.55318 | 361 ft | 17 kts | 250° |
| 2026-04-13 13:25 | 50.03809 | 8.54946 | 360 ft | 19 kts | 250° |
| 2026-04-13 13:26 | 50.03759 | 8.54737 | 363 ft | 22 kts | 249° |
| 2026-04-13 13:26 | 50.03714 | 8.54553 | 358 ft | 16 kts | 249° |
| 2026-04-13 13:26 | 50.03680 | 8.54413 | 356 ft | 8 kts | 249° |
| 2026-04-13 13:26 | 50.03661 | 8.54340 | 359 ft | 8 kts | 239° |
| 2026-04-13 13:27 | 50.03615 | 8.54312 | 357 ft | 4 kts | 166° |
| 2026-04-13 13:27 | 50.03594 | 8.54323 | 349 ft | 0 kts | 161° |
| 2026-04-13 13:28 | 50.03584 | 8.54328 | 358 ft | 3 kts | 161° |
| 2026-04-13 13:29 | 50.03557 | 8.54342 | 350 ft | 5 kts | 161° |
| 2026-04-13 13:29 | 50.03531 | 8.54357 | 354 ft | 2 kts | 156° |
| 2026-04-13 13:29 | 50.03520 | 8.54367 | 360 ft | 3 kts | 145° |
| 2026-04-13 13:29 | 50.03501 | 8.54406 | 351 ft | 6 kts | 107° |
| 2026-04-13 13:30 | 50.03508 | 8.54482 | 360 ft | 8 kts | 70° |
| 2026-04-13 13:30 | 50.03547 | 8.54643 | 360 ft | 37 kts | 69° |
| 2026-04-13 13:30 | 50.03709 | 8.55310 | 361 ft | 93 kts | 70° |
| 2026-04-13 13:30 | 50.03994 | 8.56499 | 365 ft | 140 kts | 70° |
| 2026-04-13 13:31 | 50.04379 | 8.58127 | 380 ft | 178 kts | 68° |
| 2026-04-13 13:31 | 50.04854 | 8.60039 | 623 ft | 194 kts | 66° |
| 2026-04-13 13:31 | 50.05370 | 8.61988 | 1216 ft | 193 kts | 65° |
| 2026-04-13 13:31 | 50.05887 | 8.63888 | 1915 ft | 188 kts | 65° |
| 2026-04-13 13:32 | 50.06397 | 8.65763 | 2423 ft | 191 kts | 65° |
| 2026-04-13 13:32 | 50.06932 | 8.67715 | 2807 ft | 200 kts | 65° |
| 2026-04-13 13:32 | 50.07493 | 8.69751 | 3182 ft | 209 kts | 66° |
| 2026-04-13 13:32 | 50.08273 | 8.71706 | 3533 ft | 219 kts | 42° |
| 2026-04-13 13:33 | 50.09625 | 8.72895 | 3906 ft | 229 kts | 21° |
| 2026-04-13 13:33 | 50.11161 | 8.73828 | 4218 ft | 246 kts | 21° |
| 2026-04-13 13:33 | 50.12816 | 8.74814 | 4561 ft | 263 kts | 21° |
| 2026-04-13 13:33 | 50.14572 | 8.75845 | 4999 ft | 275 kts | 21° |
| 2026-04-13 13:34 | 50.16358 | 8.76878 | 5639 ft | 280 kts | 20° |
| 2026-04-13 13:34 | 50.18194 | 8.78064 | 6382 ft | 282 kts | 26° |
| 2026-04-13 13:34 | 50.19939 | 8.79400 | 7098 ft | 285 kts | 26° |
| 2026-04-13 13:34 | 50.21738 | 8.80749 | 7776 ft | 289 kts | 25° |
| 2026-04-13 13:35 | 50.23591 | 8.82044 | 8460 ft | 295 kts | 20° |
| 2026-04-13 13:35 | 50.25627 | 8.82458 | 9052 ft | 299 kts | 350° |
| 2026-04-13 13:35 | 50.27562 | 8.81346 | 9665 ft | 299 kts | 322° |
| 2026-04-13 13:35 | 50.28972 | 8.79005 | 10199 ft | 297 kts | 295° |
| 2026-04-13 13:36 | 50.29744 | 8.75981 | 10500 ft | 305 kts | 284° |
| 2026-04-13 13:36 | 50.30386 | 8.72729 | 10798 ft | 320 kts | 284° |
| 2026-04-13 13:36 | 50.31071 | 8.69318 | 11085 ft | 336 kts | 285° |
| 2026-04-13 13:36 | 50.31818 | 8.65761 | 11370 ft | 352 kts | 285° |
| 2026-04-13 13:37 | 50.32619 | 8.62044 | 11662 ft | 368 kts | 286° |
| 2026-04-13 13:37 | 50.33462 | 8.58173 | 12011 ft | 382 kts | 286° |
| 2026-04-13 13:37 | 50.34329 | 8.54203 | 12630 ft | 387 kts | 286° |
| 2026-04-13 13:37 | 50.35202 | 8.50193 | 13396 ft | 389 kts | 286° |
| 2026-04-13 13:38 | 50.36078 | 8.46159 | 14053 ft | 393 kts | 286° |
| 2026-04-13 13:38 | 50.36962 | 8.42074 | 14645 ft | 397 kts | 285° |
| 2026-04-13 13:38 | 50.37533 | 8.37844 | 15210 ft | 397 kts | 272° |
| 2026-04-13 13:38 | 50.37447 | 8.33526 | 15787 ft | 396 kts | 258° |
| 2026-04-13 13:39 | 50.36780 | 8.29351 | 16402 ft | 395 kts | 250° |
| 2026-04-13 13:39 | 50.35946 | 8.25227 | 17061 ft | 397 kts | 249° |
| 2026-04-13 13:39 | 50.35092 | 8.21088 | 17647 ft | 401 kts | 249° |
| 2026-04-13 13:39 | 50.34235 | 8.16907 | 18205 ft | 405 kts | 249° |
| 2026-04-13 13:40 | 50.33376 | 8.12677 | 18723 ft | 409 kts | 249° |
| 2026-04-13 13:40 | 50.32515 | 8.08415 | 19258 ft | 411 kts | 249° |
| 2026-04-13 13:40 | 50.31662 | 8.04130 | 19794 ft | 414 kts | 251° |
| 2026-04-13 13:40 | 50.31333 | 7.99615 | 20216 ft | 428 kts | 271° |
| 2026-04-13 13:41 | 50.32133 | 7.95079 | 20724 ft | 440 kts | 292° |
| 2026-04-13 13:41 | 50.33891 | 7.91101 | 21272 ft | 449 kts | 308° |
| 2026-04-13 13:41 | 50.35982 | 7.87437 | 21768 ft | 452 kts | 308° |
| 2026-04-13 13:41 | 50.38084 | 7.83727 | 22221 ft | 456 kts | 307° |
| 2026-04-13 13:42 | 50.40178 | 7.79969 | 22741 ft | 459 kts | 307° |
| 2026-04-13 13:42 | 50.42265 | 7.76168 | 23243 ft | 461 kts | 306° |
| 2026-04-13 13:42 | 50.44353 | 7.72328 | 23675 ft | 464 kts | 306° |
| 2026-04-13 13:42 | 50.46448 | 7.68445 | 24052 ft | 467 kts | 306° |
| 2026-04-13 13:43 | 50.48550 | 7.64531 | 24416 ft | 469 kts | 306° |
| 2026-04-13 13:43 | 50.50661 | 7.60592 | 24745 ft | 472 kts | 306° |
| 2026-04-13 13:43 | 50.52778 | 7.56633 | 25133 ft | 474 kts | 306° |
| 2026-04-13 13:43 | 50.54909 | 7.52642 | 25533 ft | 477 kts | 306° |
| 2026-04-13 13:44 | 50.57045 | 7.48633 | 25904 ft | 480 kts | 306° |
| 2026-04-13 13:44 | 50.59192 | 7.44598 | 26294 ft | 482 kts | 306° |
| 2026-04-13 13:44 | 50.61326 | 7.40587 | 26672 ft | 484 kts | 306° |
| 2026-04-13 13:44 | 50.63493 | 7.36503 | 27039 ft | 486 kts | 306° |
| 2026-04-13 13:45 | 50.65665 | 7.32401 | 27324 ft | 488 kts | 306° |
| 2026-04-13 13:45 | 50.67849 | 7.28273 | 27603 ft | 491 kts | 306° |
| 2026-04-13 13:45 | 50.70035 | 7.24130 | 28077 ft | 491 kts | 306° |
| 2026-04-13 13:45 | 50.72215 | 7.19996 | 28657 ft | 488 kts | 306° |
| 2026-04-13 13:46 | 50.74384 | 7.15876 | 29213 ft | 487 kts | 306° |
| 2026-04-13 13:46 | 50.76549 | 7.11754 | 29729 ft | 487 kts | 306° |
| 2026-04-13 13:46 | 50.78708 | 7.07639 | 30191 ft | 486 kts | 306° |
| 2026-04-13 13:46 | 50.80866 | 7.03520 | 30630 ft | 486 kts | 305° |
| 2026-04-13 13:47 | 50.83019 | 6.99413 | 31042 ft | 485 kts | 305° |
| 2026-04-13 13:47 | 50.85166 | 6.95300 | 31411 ft | 484 kts | 305° |
| 2026-04-13 13:47 | 50.87310 | 6.91183 | 31697 ft | 484 kts | 305° |
| 2026-04-13 13:47 | 50.89452 | 6.87064 | 31944 ft | 485 kts | 304° |
| 2026-04-13 13:48 | 50.91596 | 6.82933 | 32239 ft | 485 kts | 304° |
| 2026-04-13 13:48 | 50.93739 | 6.78798 | 32591 ft | 485 kts | 304° |
| 2026-04-13 13:48 | 50.95880 | 6.74664 | 32956 ft | 484 kts | 304° |
| 2026-04-13 13:48 | 50.98014 | 6.70537 | 33324 ft | 484 kts | 304° |
| 2026-04-13 13:49 | 51.00147 | 6.66407 | 33684 ft | 484 kts | 304° |
| 2026-04-13 13:49 | 51.02279 | 6.62271 | 34071 ft | 484 kts | 304° |
| 2026-04-13 13:49 | 51.04411 | 6.58133 | 34380 ft | 483 kts | 304° |
| 2026-04-13 13:49 | 51.06538 | 6.53993 | 34732 ft | 482 kts | 304° |
| 2026-04-13 13:50 | 51.08655 | 6.49862 | 35006 ft | 482 kts | 304° |
| 2026-04-13 13:50 | 51.10776 | 6.45716 | 35254 ft | 483 kts | 304° |
| 2026-04-13 13:50 | 51.12897 | 6.41564 | 35498 ft | 484 kts | 304° |
| 2026-04-13 13:50 | 51.15024 | 6.37397 | 35712 ft | 484 kts | 304° |
| 2026-04-13 13:51 | 51.17148 | 6.33229 | 35946 ft | 485 kts | 304° |
| 2026-04-13 13:51 | 51.21409 | 6.24853 | 35985 ft | 486 kts | 304° |
| 2026-04-13 13:52 | 51.25666 | 6.16452 | 36011 ft | 486 kts | 304° |
| 2026-04-13 13:52 | 51.29628 | 6.07781 | 35987 ft | 481 kts | 298° |
| 2026-04-13 13:53 | 51.33288 | 5.98823 | 35980 ft | 480 kts | 297° |
| 2026-04-13 13:53 | 51.37032 | 5.89939 | 35975 ft | 483 kts | 301° |
| 2026-04-13 13:54 | 51.41342 | 5.81612 | 35977 ft | 488 kts | 308° |
| 2026-04-13 13:54 | 51.46018 | 5.73697 | 36005 ft | 488 kts | 308° |
| 2026-04-13 13:55 | 51.50706 | 5.65821 | 35996 ft | 488 kts | 308° |
| 2026-04-13 13:55 | 51.54591 | 5.59253 | 35963 ft | 487 kts | 308° |
| 2026-04-13 13:56 | 51.59254 | 5.51330 | 35970 ft | 487 kts | 308° |
| 2026-04-13 13:56 | 51.64663 | 5.42104 | 35962 ft | 487 kts | 308° |
| 2026-04-13 13:57 | 51.68558 | 5.35435 | 35968 ft | 487 kts | 308° |
| 2026-04-13 13:57 | 51.73204 | 5.27465 | 35978 ft | 487 kts | 308° |
| 2026-04-13 13:58 | 51.77839 | 5.19478 | 35973 ft | 487 kts | 308° |
| 2026-04-13 13:58 | 51.82473 | 5.11469 | 35972 ft | 487 kts | 308° |
| 2026-04-13 13:59 | 51.87097 | 5.03452 | 35973 ft | 487 kts | 307° |
| 2026-04-13 13:59 | 51.91712 | 4.95425 | 35973 ft | 487 kts | 307° |
| 2026-04-13 14:00 | 51.96307 | 4.87409 | 36008 ft | 487 kts | 307° |
| 2026-04-13 14:00 | 52.00918 | 4.79342 | 35981 ft | 488 kts | 307° |
| 2026-04-13 14:01 | 52.05537 | 4.71227 | 35982 ft | 488 kts | 307° |
| 2026-04-13 14:01 | 52.10146 | 4.63105 | 35977 ft | 488 kts | 307° |
| 2026-04-13 14:02 | 52.14748 | 4.54968 | 35977 ft | 488 kts | 307° |
| 2026-04-13 14:02 | 52.19348 | 4.46810 | 35985 ft | 488 kts | 307° |
| 2026-04-13 14:03 | 52.23945 | 4.38635 | 35987 ft | 488 kts | 306° |
| 2026-04-13 14:03 | 52.28534 | 4.30439 | 35996 ft | 489 kts | 306° |
| 2026-04-13 14:04 | 52.33132 | 4.22201 | 36003 ft | 488 kts | 306° |
| 2026-04-13 14:04 | 52.37708 | 4.13977 | 36012 ft | 488 kts | 306° |
| 2026-04-13 14:05 | 52.42276 | 4.05738 | 36013 ft | 488 kts | 306° |
| 2026-04-13 14:05 | 52.46843 | 3.97477 | 36066 ft | 488 kts | 306° |
| 2026-04-13 14:06 | 52.51412 | 3.89189 | 36028 ft | 490 kts | 306° |
| 2026-04-13 14:06 | 52.55980 | 3.80866 | 36022 ft | 490 kts | 306° |
| 2026-04-13 14:07 | 52.60543 | 3.72526 | 36015 ft | 490 kts | 306° |
| 2026-04-13 14:07 | 52.65095 | 3.64179 | 36020 ft | 490 kts | 306° |
| 2026-04-13 14:08 | 52.69646 | 3.55806 | 36012 ft | 490 kts | 305° |
| 2026-04-13 14:08 | 52.74192 | 3.47411 | 36019 ft | 491 kts | 305° |
| 2026-04-13 14:09 | 52.78739 | 3.38987 | 36009 ft | 491 kts | 305° |
| 2026-04-13 14:09 | 52.83286 | 3.30537 | 36007 ft | 491 kts | 305° |
| 2026-04-13 14:10 | 52.87571 | 3.21896 | 36017 ft | 485 kts | 298° |
| 2026-04-13 14:10 | 52.90963 | 3.12276 | 36022 ft | 475 kts | 288° |
| 2026-04-13 14:11 | 52.93286 | 3.02135 | 36064 ft | 466 kts | 279° |
| 2026-04-13 14:11 | 52.94744 | 2.91780 | 36044 ft | 463 kts | 276° |
| 2026-04-13 14:12 | 52.96095 | 2.81315 | 36030 ft | 464 kts | 276° |
| 2026-04-13 14:12 | 52.97448 | 2.70836 | 36030 ft | 464 kts | 276° |
| 2026-04-13 14:13 | 52.98800 | 2.60360 | 36036 ft | 463 kts | 276° |
| 2026-04-13 14:13 | 53.00136 | 2.49896 | 36053 ft | 463 kts | 277° |
| 2026-04-13 14:14 | 53.02134 | 2.34159 | 36026 ft | 463 kts | 277° |
| 2026-04-13 14:14 | 53.03457 | 2.23667 | 36028 ft | 463 kts | 277° |
| 2026-04-13 14:15 | 53.04767 | 2.13161 | 36020 ft | 463 kts | 276° |
| 2026-04-13 14:15 | 53.06066 | 2.02660 | 36056 ft | 463 kts | 276° |
| 2026-04-13 14:16 | 53.07346 | 1.92156 | 36029 ft | 463 kts | 277° |
| 2026-04-13 14:16 | 53.08626 | 1.81652 | 36016 ft | 463 kts | 277° |
| 2026-04-13 14:17 | 53.09896 | 1.71137 | 36014 ft | 463 kts | 277° |
| 2026-04-13 14:17 | 53.11155 | 1.60616 | 36015 ft | 463 kts | 277° |
| 2026-04-13 14:18 | 53.12403 | 1.50091 | 36031 ft | 463 kts | 277° |
| 2026-04-13 14:18 | 53.13637 | 1.39576 | 36012 ft | 462 kts | 277° |
| 2026-04-13 14:19 | 53.14868 | 1.29057 | 36015 ft | 462 kts | 277° |
| 2026-04-13 14:19 | 53.16088 | 1.18542 | 36007 ft | 462 kts | 277° |
| 2026-04-13 14:20 | 53.17298 | 1.08013 | 36007 ft | 462 kts | 277° |
| 2026-04-13 14:20 | 53.18493 | 0.97479 | 36012 ft | 461 kts | 278° |
| 2026-04-13 14:21 | 53.19681 | 0.86971 | 36003 ft | 460 kts | 278° |
| 2026-04-13 14:21 | 53.20854 | 0.76534 | 35995 ft | 460 kts | 277° |
| 2026-04-13 14:22 | 53.22021 | 0.66021 | 35996 ft | 460 kts | 277° |
| 2026-04-13 14:22 | 53.23179 | 0.55504 | 35989 ft | 460 kts | 277° |
| 2026-04-13 14:23 | 53.24322 | 0.44989 | 35995 ft | 459 kts | 278° |
| 2026-04-13 14:23 | 53.25460 | 0.34511 | 35990 ft | 458 kts | 278° |
| 2026-04-13 14:24 | 53.26591 | 0.24016 | 35982 ft | 458 kts | 278° |
| 2026-04-13 14:24 | 53.27708 | 0.13513 | 35977 ft | 458 kts | 277° |
| 2026-04-13 14:25 | 53.28813 | 0.03010 | 35977 ft | 458 kts | 277° |
| 2026-04-13 14:25 | 53.29908 | -0.07496 | 35974 ft | 456 kts | 278° |
| 2026-04-13 14:26 | 53.30992 | -0.17946 | 35971 ft | 455 kts | 278° |
| 2026-04-13 14:26 | 53.32068 | -0.28407 | 35970 ft | 455 kts | 278° |
| 2026-04-13 14:27 | 53.33130 | -0.38857 | 35966 ft | 455 kts | 278° |
| 2026-04-13 14:27 | 53.34186 | -0.49327 | 35965 ft | 455 kts | 278° |
| 2026-04-13 14:28 | 53.35230 | -0.59794 | 35968 ft | 455 kts | 277° |
| 2026-04-13 14:28 | 53.36266 | -0.70265 | 35965 ft | 455 kts | 277° |
| 2026-04-13 14:29 | 53.37297 | -0.80759 | 35959 ft | 455 kts | 277° |
| 2026-04-13 14:29 | 53.38314 | -0.91243 | 35957 ft | 455 kts | 277° |
| 2026-04-13 14:30 | 53.39314 | -1.01641 | 35960 ft | 455 kts | 277° |
| 2026-04-13 14:30 | 53.40308 | -1.12106 | 35959 ft | 453 kts | 278° |
| 2026-04-13 14:31 | 53.41296 | -1.22540 | 35958 ft | 452 kts | 278° |
| 2026-04-13 14:31 | 53.42270 | -1.32969 | 35958 ft | 452 kts | 278° |
| 2026-04-13 14:32 | 53.43236 | -1.43397 | 35954 ft | 452 kts | 277° |
| 2026-04-13 14:32 | 53.44190 | -1.53831 | 35955 ft | 452 kts | 277° |
| 2026-04-13 14:33 | 53.45131 | -1.64238 | 35958 ft | 449 kts | 278° |
| 2026-04-13 14:33 | 53.46065 | -1.74609 | 35953 ft | 449 kts | 278° |
| 2026-04-13 14:34 | 53.46987 | -1.84976 | 35957 ft | 448 kts | 278° |
| 2026-04-13 14:34 | 53.47900 | -1.95344 | 35952 ft | 449 kts | 278° |
| 2026-04-13 14:35 | 53.48803 | -2.05716 | 35949 ft | 448 kts | 277° |
| 2026-04-13 14:35 | 53.49688 | -2.16054 | 35951 ft | 445 kts | 278° |
| 2026-04-13 14:36 | 53.50568 | -2.26349 | 35945 ft | 444 kts | 278° |
| 2026-04-13 14:36 | 53.51439 | -2.36646 | 35953 ft | 444 kts | 278° |
| 2026-04-13 14:37 | 53.52300 | -2.46962 | 35954 ft | 444 kts | 278° |
| 2026-04-13 14:37 | 53.53151 | -2.57264 | 35951 ft | 444 kts | 278° |
| 2026-04-13 14:38 | 53.53987 | -2.67542 | 35947 ft | 441 kts | 278° |
| 2026-04-13 14:38 | 53.54814 | -2.77763 | 35953 ft | 440 kts | 278° |
| 2026-04-13 14:39 | 53.55632 | -2.87989 | 35961 ft | 440 kts | 278° |
| 2026-04-13 14:39 | 53.56441 | -2.98217 | 35962 ft | 440 kts | 278° |
| 2026-04-13 14:40 | 53.57239 | -3.08435 | 35969 ft | 440 kts | 278° |
| 2026-04-13 14:40 | 53.58026 | -3.18649 | 35960 ft | 438 kts | 278° |
| 2026-04-13 14:41 | 53.58803 | -3.28806 | 35964 ft | 437 kts | 278° |
| 2026-04-13 14:41 | 53.59571 | -3.38967 | 35961 ft | 437 kts | 278° |
| 2026-04-13 14:42 | 53.60330 | -3.49132 | 35958 ft | 437 kts | 278° |
| 2026-04-13 14:42 | 53.61079 | -3.59306 | 35954 ft | 437 kts | 278° |
| 2026-04-13 14:43 | 53.61643 | -3.67764 | 35955 ft | 436 kts | 276° |
| 2026-04-13 14:43 | 53.62150 | -3.79590 | 35951 ft | 435 kts | 275° |
| 2026-04-13 14:44 | 53.62566 | -3.89773 | 35954 ft | 435 kts | 275° |
| 2026-04-13 14:44 | 53.62975 | -3.99957 | 35952 ft | 435 kts | 275° |
| 2026-04-13 14:45 | 53.63310 | -4.08474 | 35952 ft | 435 kts | 275° |
| 2026-04-13 14:45 | 53.63703 | -4.18650 | 35950 ft | 434 kts | 275° |
| 2026-04-13 14:46 | 53.64084 | -4.28786 | 35949 ft | 432 kts | 275° |
| 2026-04-13 14:46 | 53.64457 | -4.38850 | 35941 ft | 432 kts | 275° |
| 2026-04-13 14:47 | 53.64823 | -4.48965 | 35942 ft | 432 kts | 275° |
| 2026-04-13 14:47 | 53.65180 | -4.59088 | 35951 ft | 432 kts | 275° |
| 2026-04-13 14:48 | 53.65529 | -4.69226 | 35941 ft | 433 kts | 275° |
| 2026-04-13 14:48 | 53.65864 | -4.79339 | 35933 ft | 431 kts | 275° |
| 2026-04-13 14:49 | 53.66197 | -4.89448 | 35933 ft | 431 kts | 275° |
| 2026-04-13 14:49 | 53.66524 | -4.99539 | 35935 ft | 431 kts | 275° |
| 2026-04-13 14:50 | 53.66841 | -5.09643 | 35932 ft | 431 kts | 275° |
| 2026-04-13 14:50 | 53.67147 | -5.19749 | 35927 ft | 431 kts | 274° |
| 2026-04-13 14:51 | 53.67438 | -5.29841 | 35921 ft | 429 kts | 275° |
| 2026-04-13 14:51 | 53.67721 | -5.39892 | 35924 ft | 429 kts | 274° |
| 2026-04-13 14:52 | 53.67994 | -5.49955 | 35924 ft | 429 kts | 274° |
| 2026-04-13 14:52 | 53.68210 | -5.60024 | 35922 ft | 429 kts | 274° |
| 2026-04-13 14:53 | 53.68401 | -5.70091 | 35915 ft | 429 kts | 274° |
| 2026-04-13 14:53 | 53.68586 | -5.80162 | 35918 ft | 429 kts | 274° |
| 2026-04-13 14:54 | 53.68764 | -5.90233 | 35904 ft | 429 kts | 274° |
| 2026-04-13 14:54 | 53.68934 | -6.00311 | 35902 ft | 429 kts | 274° |
| 2026-04-13 14:55 | 53.69096 | -6.10380 | 35892 ft | 429 kts | 273° |
| 2026-04-13 14:55 | 53.69249 | -6.20457 | 35888 ft | 429 kts | 273° |
| 2026-04-13 14:56 | 53.69392 | -6.30522 | 35870 ft | 427 kts | 274° |
| 2026-04-13 14:56 | 53.69528 | -6.40557 | 35876 ft | 427 kts | 273° |
| 2026-04-13 14:57 | 53.69657 | -6.50579 | 35863 ft | 427 kts | 273° |
| 2026-04-13 14:58 | 53.69833 | -6.65549 | 35864 ft | 427 kts | 273° |
| 2026-04-13 14:58 | 53.69939 | -6.75575 | 35857 ft | 427 kts | 273° |
| 2026-04-13 14:59 | 53.70037 | -6.85592 | 35852 ft | 425 kts | 273° |
| 2026-04-13 14:59 | 53.70127 | -6.95574 | 35852 ft | 425 kts | 273° |
| 2026-04-13 15:00 | 53.70209 | -7.05553 | 35852 ft | 425 kts | 273° |
| 2026-04-13 15:00 | 53.70282 | -7.15538 | 35844 ft | 425 kts | 273° |
| 2026-04-13 15:01 | 53.70346 | -7.25518 | 35845 ft | 425 kts | 273° |
| 2026-04-13 15:01 | 53.70402 | -7.35494 | 35833 ft | 423 kts | 273° |
| 2026-04-13 15:02 | 53.70450 | -7.45430 | 35838 ft | 422 kts | 273° |
| 2026-04-13 15:02 | 53.70490 | -7.55352 | 35836 ft | 422 kts | 273° |
| 2026-04-13 15:03 | 53.70522 | -7.65289 | 35837 ft | 422 kts | 272° |
| 2026-04-13 15:03 | 53.70545 | -7.75214 | 35834 ft | 422 kts | 272° |
| 2026-04-13 15:04 | 53.70560 | -7.85145 | 35821 ft | 422 kts | 272° |
| 2026-04-13 15:04 | 53.70566 | -7.94972 | 35828 ft | 421 kts | 272° |
| 2026-04-13 15:05 | 53.70566 | -8.04934 | 35829 ft | 421 kts | 272° |
| 2026-04-13 15:05 | 53.70556 | -8.14818 | 35826 ft | 421 kts | 272° |
| 2026-04-13 15:06 | 53.70539 | -8.24644 | 35826 ft | 421 kts | 272° |
| 2026-04-13 15:06 | 53.70513 | -8.34537 | 35862 ft | 421 kts | 272° |
| 2026-04-13 15:07 | 53.70481 | -8.44413 | 35829 ft | 420 kts | 272° |
| 2026-04-13 15:07 | 53.70438 | -8.54281 | 35828 ft | 419 kts | 272° |
| 2026-04-13 15:08 | 53.70388 | -8.64191 | 35825 ft | 419 kts | 272° |
| 2026-04-13 15:08 | 53.70330 | -8.73981 | 35826 ft | 419 kts | 272° |
| 2026-04-13 15:09 | 53.70264 | -8.83834 | 35828 ft | 419 kts | 272° |
| 2026-04-13 15:09 | 53.70190 | -8.93682 | 35821 ft | 418 kts | 272° |
| 2026-04-13 15:10 | 53.70108 | -9.03489 | 35829 ft | 417 kts | 272° |
| 2026-04-13 15:10 | 53.70018 | -9.13305 | 35829 ft | 417 kts | 271° |
| 2026-04-13 15:11 | 53.69920 | -9.23104 | 35832 ft | 417 kts | 271° |
| 2026-04-13 15:11 | 53.69814 | -9.32913 | 35830 ft | 417 kts | 271° |
| 2026-04-13 15:12 | 53.69701 | -9.42710 | 35820 ft | 417 kts | 271° |
| 2026-04-13 15:12 | 53.69579 | -9.52483 | 35833 ft | 415 kts | 271° |
| 2026-04-13 15:13 | 53.69449 | -9.62251 | 35842 ft | 415 kts | 271° |
| 2026-04-13 15:13 | 53.69313 | -9.72008 | 35841 ft | 415 kts | 271° |
| 2026-04-13 15:14 | 53.69167 | -9.81768 | 35840 ft | 415 kts | 271° |
| 2026-04-13 15:14 | 53.69015 | -9.91530 | 35844 ft | 416 kts | 271° |
| 2026-04-13 15:15 | 53.68853 | -10.01279 | 35844 ft | 414 kts | 271° |
| 2026-04-13 15:15 | 53.68685 | -10.11010 | 35854 ft | 414 kts | 271° |
| 2026-04-13 15:16 | 53.68509 | -10.20731 | 35841 ft | 414 kts | 271° |
| 2026-04-13 15:16 | 53.68325 | -10.30459 | 35841 ft | 414 kts | 271° |
| 2026-04-13 15:17 | 53.68133 | -10.40185 | 35847 ft | 414 kts | 271° |
| 2026-04-13 15:17 | 53.67933 | -10.49913 | 35834 ft | 414 kts | 271° |
| 2026-04-13 15:18 | 53.67726 | -10.59630 | 35835 ft | 414 kts | 270° |
| 2026-04-13 15:18 | 53.67512 | -10.69270 | 35837 ft | 414 kts | 270° |
| 2026-04-13 15:19 | 53.67288 | -10.78982 | 35837 ft | 414 kts | 270° |
| 2026-04-13 15:19 | 53.67057 | -10.88684 | 35831 ft | 414 kts | 270° |
| 2026-04-13 15:20 | 53.66818 | -10.98389 | 35830 ft | 414 kts | 270° |
| 2026-04-13 15:20 | 53.66570 | -11.08159 | 35830 ft | 414 kts | 270° |
| 2026-04-13 15:21 | 53.66318 | -11.17791 | 35830 ft | 414 kts | 270° |
| 2026-04-13 15:21 | 53.66055 | -11.27500 | 35826 ft | 414 kts | 270° |
| 2026-04-13 15:22 | 53.65785 | -11.37196 | 35823 ft | 414 kts | 270° |
| 2026-04-13 15:22 | 53.65507 | -11.46902 | 35823 ft | 414 kts | 270° |
| 2026-04-13 15:23 | 53.65221 | -11.56599 | 35808 ft | 413 kts | 270° |
| 2026-04-13 15:23 | 53.64928 | -11.66270 | 35816 ft | 412 kts | 270° |
| 2026-04-13 15:24 | 53.64628 | -11.75934 | 35811 ft | 412 kts | 270° |
| 2026-04-13 15:24 | 53.64319 | -11.85600 | 35813 ft | 412 kts | 270° |
| 2026-04-13 15:25 | 53.64003 | -11.95262 | 35809 ft | 412 kts | 270° |
| 2026-04-13 15:25 | 53.63679 | -12.04926 | 35790 ft | 412 kts | 270° |
| 2026-04-13 15:26 | 53.63349 | -12.14561 | 35812 ft | 411 kts | 269° |
| 2026-04-13 15:26 | 53.63010 | -12.24189 | 35803 ft | 411 kts | 269° |
| 2026-04-13 15:27 | 53.62664 | -12.33813 | 35802 ft | 411 kts | 269° |
| 2026-04-13 15:27 | 53.62310 | -12.43435 | 35797 ft | 411 kts | 269° |
| 2026-04-13 15:28 | 53.61948 | -12.53064 | 35796 ft | 411 kts | 269° |
| 2026-04-13 15:28 | 53.61579 | -12.62669 | 35788 ft | 410 kts | 269° |
| 2026-04-13 15:29 | 53.61204 | -12.72257 | 35790 ft | 409 kts | 269° |
| 2026-04-13 15:29 | 53.60821 | -12.81834 | 35790 ft | 409 kts | 269° |
| 2026-04-13 15:30 | 53.60430 | -12.91422 | 35789 ft | 409 kts | 269° |
| 2026-04-13 15:30 | 53.60032 | -13.01000 | 35784 ft | 409 kts | 269° |
| 2026-04-13 15:31 | 53.59626 | -13.10567 | 35771 ft | 409 kts | 269° |
| 2026-04-13 15:31 | 53.59283 | -13.18503 | 35781 ft | 408 kts | 269° |
| 2026-04-13 15:32 | 53.58864 | -13.28047 | 35771 ft | 408 kts | 269° |
| 2026-04-13 15:32 | 53.58438 | -13.37588 | 35784 ft | 408 kts | 269° |
| 2026-04-13 15:33 | 53.58004 | -13.47121 | 35774 ft | 408 kts | 269° |
| 2026-04-13 15:33 | 53.57564 | -13.56646 | 35773 ft | 408 kts | 269° |
| 2026-04-13 15:34 | 53.56888 | -13.70914 | 35771 ft | 406 kts | 268° |
| 2026-04-13 15:34 | 53.56431 | -13.80397 | 35761 ft | 406 kts | 268° |
| 2026-04-13 15:35 | 53.55965 | -13.89883 | 35767 ft | 406 kts | 268° |
| 2026-04-13 15:35 | 53.55489 | -13.99416 | 35763 ft | 406 kts | 268° |
| 2026-04-13 15:36 | 53.55008 | -14.08896 | 35762 ft | 406 kts | 268° |
| 2026-04-13 15:36 | 53.54521 | -14.18371 | 35755 ft | 405 kts | 268° |
| 2026-04-13 15:37 | 53.54026 | -14.27811 | 35754 ft | 405 kts | 268° |
| 2026-04-13 15:37 | 53.53528 | -14.37197 | 35759 ft | 405 kts | 268° |
| 2026-04-13 15:38 | 53.53019 | -14.46639 | 35750 ft | 405 kts | 268° |
| 2026-04-13 15:38 | 53.52502 | -14.56082 | 35743 ft | 405 kts | 268° |
| 2026-04-13 15:39 | 53.51979 | -14.65510 | 35729 ft | 404 kts | 268° |
| 2026-04-13 15:39 | 53.51449 | -14.74902 | 35738 ft | 403 kts | 268° |
| 2026-04-13 15:40 | 53.50911 | -14.84301 | 35734 ft | 402 kts | 268° |
| 2026-04-13 15:40 | 53.50619 | -14.93682 | 35737 ft | 401 kts | 272° |
| 2026-04-13 15:41 | 53.50825 | -15.03040 | 35736 ft | 400 kts | 276° |
| 2026-04-13 15:41 | 53.51524 | -15.12313 | 35731 ft | 399 kts | 281° |
| 2026-04-13 15:42 | 53.52588 | -15.21474 | 35726 ft | 397 kts | 281° |
| 2026-04-13 15:42 | 53.53671 | -15.30602 | 35732 ft | 398 kts | 281° |
| 2026-04-13 15:43 | 53.54754 | -15.39748 | 35728 ft | 398 kts | 281° |
| 2026-04-13 15:43 | 53.55833 | -15.48892 | 35730 ft | 398 kts | 281° |
| 2026-04-13 15:44 | 53.56907 | -15.58048 | 35727 ft | 398 kts | 281° |
| 2026-04-13 15:44 | 53.57976 | -15.67223 | 35727 ft | 398 kts | 281° |
| 2026-04-13 15:45 | 53.59038 | -15.76385 | 35708 ft | 398 kts | 281° |
| 2026-04-13 15:45 | 53.60088 | -15.85506 | 35719 ft | 396 kts | 281° |
| 2026-04-13 15:46 | 53.61121 | -15.94568 | 35721 ft | 396 kts | 281° |
| 2026-04-13 15:46 | 53.62154 | -16.03684 | 35719 ft | 396 kts | 281° |
| 2026-04-13 15:47 | 53.63180 | -16.12803 | 35723 ft | 396 kts | 281° |
| 2026-04-13 15:47 | 53.64199 | -16.21918 | 35716 ft | 396 kts | 281° |
| 2026-04-13 15:48 | 53.65216 | -16.31072 | 35730 ft | 397 kts | 280° |
| 2026-04-13 15:48 | 53.66225 | -16.40249 | 35721 ft | 398 kts | 280° |
| 2026-04-13 15:49 | 53.67229 | -16.49433 | 35713 ft | 398 kts | 280° |
| 2026-04-13 15:49 | 53.68225 | -16.58620 | 35714 ft | 398 kts | 280° |
| 2026-04-13 15:50 | 53.69214 | -16.67809 | 35714 ft | 397 kts | 280° |
| 2026-04-13 15:50 | 53.70196 | -16.77001 | 35712 ft | 397 kts | 280° |
| 2026-04-13 15:51 | 53.71171 | -16.86197 | 35713 ft | 397 kts | 280° |
| 2026-04-13 15:51 | 53.72140 | -16.95374 | 35699 ft | 395 kts | 279° |
| 2026-04-13 15:52 | 53.73095 | -17.04529 | 35706 ft | 394 kts | 279° |
| 2026-04-13 15:52 | 53.74039 | -17.13652 | 35705 ft | 394 kts | 279° |
| 2026-04-13 15:53 | 53.74976 | -17.22777 | 35707 ft | 394 kts | 279° |
| 2026-04-13 15:53 | 53.75908 | -17.31912 | 35727 ft | 395 kts | 279° |
| 2026-04-13 15:54 | 53.76838 | -17.41101 | 35705 ft | 396 kts | 279° |
| 2026-04-13 15:54 | 53.77762 | -17.50304 | 35690 ft | 396 kts | 279° |
| 2026-04-13 15:55 | 53.78675 | -17.59453 | 35700 ft | 393 kts | 279° |
| 2026-04-13 15:55 | 53.79574 | -17.68578 | 35699 ft | 393 kts | 278° |
| 2026-04-13 15:56 | 53.80469 | -17.77720 | 35702 ft | 393 kts | 278° |
| 2026-04-13 15:56 | 53.81356 | -17.86856 | 35698 ft | 393 kts | 278° |
| 2026-04-13 15:57 | 53.82240 | -17.96026 | 35700 ft | 393 kts | 278° |
| 2026-04-13 15:57 | 53.83112 | -18.05160 | 35699 ft | 393 kts | 278° |
| 2026-04-13 15:58 | 53.83980 | -18.14281 | 35691 ft | 391 kts | 278° |
| 2026-04-13 15:58 | 53.84834 | -18.23385 | 35693 ft | 390 kts | 278° |
| 2026-04-13 15:59 | 53.85680 | -18.32483 | 35710 ft | 390 kts | 278° |
| 2026-04-13 15:59 | 53.86518 | -18.41558 | 35701 ft | 393 kts | 278° |
| 2026-04-13 16:00 | 53.87358 | -18.50738 | 35695 ft | 394 kts | 277° |
| 2026-04-13 16:00 | 53.88192 | -18.59917 | 35690 ft | 394 kts | 277° |
| 2026-04-13 16:01 | 53.89024 | -18.69146 | 36120 ft | 395 kts | 277° |
| 2026-04-13 16:01 | 53.89435 | -18.73732 | 36514 ft | 392 kts | 277° |
| 2026-04-13 16:01 | 53.89842 | -18.78320 | 36732 ft | 394 kts | 277° |
| 2026-04-13 16:02 | 53.90250 | -18.82941 | 36876 ft | 397 kts | 277° |
| 2026-04-13 16:02 | 53.90635 | -18.87315 | 37027 ft | 399 kts | 277° |
| 2026-04-13 16:02 | 53.91044 | -18.91983 | 37232 ft | 400 kts | 277° |
| 2026-04-13 16:02 | 53.91453 | -18.96665 | 37419 ft | 401 kts | 277° |
| 2026-04-13 16:03 | 53.91861 | -19.01359 | 37593 ft | 402 kts | 277° |
| 2026-04-13 16:03 | 53.92269 | -19.06067 | 37668 ft | 404 kts | 277° |
| 2026-04-13 16:03 | 53.93081 | -19.15517 | 37676 ft | 405 kts | 277° |
| 2026-04-13 16:04 | 53.93888 | -19.24982 | 37669 ft | 405 kts | 277° |
| 2026-04-13 16:04 | 53.94687 | -19.34431 | 37677 ft | 403 kts | 276° |
| 2026-04-13 16:05 | 53.95474 | -19.43866 | 37687 ft | 404 kts | 276° |
| 2026-04-13 16:05 | 53.96256 | -19.53342 | 37674 ft | 405 kts | 276° |
| 2026-04-13 16:06 | 53.97027 | -19.62755 | 37676 ft | 405 kts | 276° |
| 2026-04-13 16:06 | 53.97795 | -19.72241 | 37670 ft | 405 kts | 276° |
| 2026-04-13 16:07 | 53.98556 | -19.81722 | 37671 ft | 405 kts | 276° |
| 2026-04-13 16:07 | 53.99309 | -19.91205 | 37665 ft | 403 kts | 276° |
| 2026-04-13 16:08 | 54.00003 | -20.00677 | 37661 ft | 402 kts | 274° |
| 2026-04-13 16:08 | 54.00412 | -20.10177 | 37667 ft | 402 kts | 272° |
| 2026-04-13 16:09 | 54.00799 | -20.19675 | 37659 ft | 402 kts | 272° |
| 2026-04-13 16:09 | 54.01177 | -20.29193 | 37662 ft | 402 kts | 272° |
| 2026-04-13 16:10 | 54.01546 | -20.38697 | 37662 ft | 402 kts | 272° |
| 2026-04-13 16:10 | 54.01910 | -20.48206 | 37652 ft | 402 kts | 272° |
| 2026-04-13 16:11 | 54.02265 | -20.57735 | 37671 ft | 404 kts | 272° |
| 2026-04-13 16:11 | 54.02611 | -20.67295 | 37650 ft | 404 kts | 272° |
| 2026-04-13 16:12 | 54.02951 | -20.76863 | 37652 ft | 404 kts | 271° |
| 2026-04-13 16:12 | 54.03283 | -20.86432 | 37654 ft | 404 kts | 271° |
| 2026-04-13 16:13 | 54.03608 | -20.95999 | 37649 ft | 404 kts | 271° |
| 2026-04-13 16:13 | 54.03927 | -21.05565 | 37645 ft | 404 kts | 271° |
| 2026-04-13 16:14 | 54.04236 | -21.15124 | 37642 ft | 404 kts | 271° |
| 2026-04-13 16:14 | 54.04537 | -21.24682 | 37643 ft | 404 kts | 271° |
| 2026-04-13 16:15 | 54.04831 | -21.34242 | 37643 ft | 404 kts | 271° |
| 2026-04-13 16:15 | 54.05118 | -21.43805 | 37637 ft | 404 kts | 271° |
| 2026-04-13 16:16 | 54.05397 | -21.53377 | 37643 ft | 404 kts | 271° |
| 2026-04-13 16:16 | 54.05670 | -21.62940 | 37632 ft | 404 kts | 270° |
| 2026-04-13 16:17 | 54.05934 | -21.72514 | 37636 ft | 404 kts | 270° |
| 2026-04-13 16:17 | 54.06190 | -21.82086 | 37636 ft | 404 kts | 270° |
| 2026-04-13 16:18 | 54.06438 | -21.91667 | 37637 ft | 404 kts | 270° |
| 2026-04-13 16:18 | 54.06678 | -22.01178 | 37635 ft | 404 kts | 270° |
| 2026-04-13 16:19 | 54.06912 | -22.10759 | 37634 ft | 404 kts | 270° |
| 2026-04-13 16:19 | 54.07138 | -22.20350 | 37637 ft | 404 kts | 270° |
| 2026-04-13 16:20 | 54.07357 | -22.29930 | 37631 ft | 404 kts | 270° |
| 2026-04-13 16:20 | 54.07568 | -22.39510 | 37629 ft | 404 kts | 270° |
| 2026-04-13 16:21 | 54.07738 | -22.47533 | 37628 ft | 404 kts | 270° |
| 2026-04-13 16:21 | 54.07935 | -22.57123 | 37621 ft | 404 kts | 270° |
| 2026-04-13 16:22 | 54.08125 | -22.66703 | 37621 ft | 404 kts | 270° |
| 2026-04-13 16:23 | 54.08397 | -22.81077 | 37617 ft | 404 kts | 269° |
| 2026-04-13 16:23 | 54.08567 | -22.90667 | 37617 ft | 404 kts | 269° |
| 2026-04-13 16:24 | 54.08727 | -23.00194 | 37640 ft | 405 kts | 269° |
| 2026-04-13 16:24 | 54.08883 | -23.09833 | 37617 ft | 407 kts | 269° |
| 2026-04-13 16:25 | 54.09031 | -23.19475 | 37616 ft | 407 kts | 269° |
| 2026-04-13 16:25 | 54.09171 | -23.29125 | 37609 ft | 407 kts | 269° |
| 2026-04-13 16:26 | 54.09307 | -23.38782 | 37612 ft | 407 kts | 269° |
| 2026-04-13 16:26 | 54.09431 | -23.48450 | 37607 ft | 408 kts | 269° |
| 2026-04-13 16:27 | 54.09548 | -23.58121 | 37609 ft | 408 kts | 269° |
| 2026-04-13 16:27 | 54.09658 | -23.67796 | 37605 ft | 408 kts | 268° |
| 2026-04-13 16:28 | 54.09760 | -23.77468 | 37602 ft | 408 kts | 268° |
| 2026-04-13 16:28 | 54.09854 | -23.87146 | 37595 ft | 408 kts | 268° |
| 2026-04-13 16:29 | 54.09943 | -23.96821 | 37592 ft | 408 kts | 268° |
| 2026-04-13 16:29 | 54.10022 | -24.06512 | 37601 ft | 408 kts | 268° |
| 2026-04-13 16:30 | 54.10092 | -24.16197 | 37594 ft | 408 kts | 268° |
| 2026-04-13 16:30 | 54.10155 | -24.25886 | 37629 ft | 408 kts | 268° |
| 2026-04-13 16:31 | 54.10211 | -24.35554 | 37587 ft | 411 kts | 268° |
| 2026-04-13 16:31 | 54.10259 | -24.45387 | 37585 ft | 411 kts | 268° |
| 2026-04-13 16:32 | 54.10301 | -24.55152 | 37588 ft | 412 kts | 267° |
| 2026-04-13 16:32 | 54.10333 | -24.64877 | 37581 ft | 413 kts | 267° |
| 2026-04-13 16:33 | 54.10356 | -24.74672 | 37582 ft | 413 kts | 267° |
| 2026-04-13 16:33 | 54.10373 | -24.84473 | 37574 ft | 413 kts | 267° |
| 2026-04-13 16:34 | 54.10381 | -24.94263 | 37575 ft | 413 kts | 267° |
| 2026-04-13 16:34 | 54.10382 | -25.04051 | 37579 ft | 413 kts | 267° |
| 2026-04-13 16:35 | 54.10377 | -25.13857 | 37575 ft | 414 kts | 266° |
| 2026-04-13 16:35 | 54.10361 | -25.23702 | 37575 ft | 415 kts | 266° |
| 2026-04-13 16:36 | 54.10337 | -25.33550 | 37561 ft | 415 kts | 266° |
| 2026-04-13 16:36 | 54.10305 | -25.43396 | 37561 ft | 415 kts | 266° |
| 2026-04-13 16:37 | 54.10265 | -25.53235 | 37588 ft | 416 kts | 266° |
| 2026-04-13 16:37 | 54.10218 | -25.63060 | 37569 ft | 417 kts | 266° |
| 2026-04-13 16:38 | 54.10164 | -25.73048 | 37564 ft | 419 kts | 266° |
| 2026-04-13 16:38 | 54.10099 | -25.82996 | 37554 ft | 419 kts | 265° |
| 2026-04-13 16:39 | 54.10026 | -25.92882 | 37554 ft | 419 kts | 265° |
| 2026-04-13 16:39 | 54.09945 | -26.02843 | 37551 ft | 419 kts | 265° |
| 2026-04-13 16:40 | 54.09856 | -26.12792 | 37551 ft | 419 kts | 265° |
| 2026-04-13 16:40 | 54.09759 | -26.22746 | 37551 ft | 419 kts | 265° |
| 2026-04-13 16:41 | 54.09656 | -26.32768 | 37545 ft | 421 kts | 265° |
| 2026-04-13 16:41 | 54.09540 | -26.42753 | 37543 ft | 421 kts | 265° |
| 2026-04-13 16:42 | 54.09417 | -26.52748 | 37540 ft | 421 kts | 265° |
| 2026-04-13 16:42 | 54.09287 | -26.62656 | 37540 ft | 421 kts | 265° |
| 2026-04-13 16:43 | 54.09148 | -26.72637 | 37535 ft | 421 kts | 264° |
| 2026-04-13 16:43 | 54.08999 | -26.82637 | 37551 ft | 423 kts | 264° |
| 2026-04-13 16:44 | 54.08846 | -26.92704 | 37533 ft | 425 kts | 264° |
| 2026-04-13 16:44 | 54.08680 | -27.02778 | 37531 ft | 425 kts | 264° |
| 2026-04-13 16:45 | 54.08505 | -27.12860 | 37530 ft | 425 kts | 264° |
| 2026-04-13 16:45 | 54.08323 | -27.22933 | 37521 ft | 425 kts | 264° |
| 2026-04-13 16:46 | 54.08132 | -27.33006 | 37522 ft | 425 kts | 264° |
| 2026-04-13 16:46 | 54.07935 | -27.43075 | 37523 ft | 427 kts | 263° |
| 2026-04-13 16:47 | 54.07727 | -27.53263 | 37518 ft | 431 kts | 263° |
| 2026-04-13 16:47 | 54.07506 | -27.63489 | 37514 ft | 432 kts | 263° |
| 2026-04-13 16:48 | 54.07277 | -27.73722 | 37519 ft | 432 kts | 263° |
| 2026-04-13 16:48 | 54.07040 | -27.83947 | 37516 ft | 432 kts | 263° |
| 2026-04-13 16:49 | 54.06794 | -27.94182 | 37513 ft | 432 kts | 263° |
| 2026-04-13 16:49 | 54.06539 | -28.04420 | 37527 ft | 433 kts | 263° |
| 2026-04-13 16:50 | 54.06276 | -28.14676 | 37503 ft | 433 kts | 263° |
| 2026-04-13 16:50 | 54.06004 | -28.24943 | 37499 ft | 433 kts | 263° |
| 2026-04-13 16:51 | 54.05724 | -28.35138 | 37494 ft | 433 kts | 262° |
| 2026-04-13 16:51 | 54.05435 | -28.45390 | 37494 ft | 433 kts | 262° |
| 2026-04-13 16:52 | 54.05137 | -28.55650 | 37496 ft | 433 kts | 262° |
| 2026-04-13 16:52 | 54.04827 | -28.66007 | 37490 ft | 436 kts | 262° |
| 2026-04-13 16:53 | 54.04510 | -28.76257 | 37485 ft | 436 kts | 262° |
| 2026-04-13 16:53 | 54.04183 | -28.86589 | 37476 ft | 436 kts | 262° |
| 2026-04-13 16:54 | 54.03846 | -28.96916 | 37476 ft | 436 kts | 262° |
| 2026-04-13 16:54 | 54.03501 | -29.07243 | 37470 ft | 436 kts | 262° |
| 2026-04-13 16:55 | 54.03149 | -29.17571 | 37484 ft | 438 kts | 261° |
| 2026-04-13 16:55 | 54.02783 | -29.27951 | 37475 ft | 440 kts | 261° |
| 2026-04-13 16:56 | 54.02407 | -29.38369 | 37463 ft | 441 kts | 261° |
| 2026-04-13 16:56 | 54.02023 | -29.48792 | 37450 ft | 441 kts | 261° |
| 2026-04-13 16:57 | 54.01629 | -29.59219 | 37456 ft | 441 kts | 261° |
| 2026-04-13 16:57 | 54.01227 | -29.69633 | 37454 ft | 441 kts | 261° |
| 2026-04-13 16:58 | 54.00816 | -29.80074 | 37455 ft | 443 kts | 261° |
| 2026-04-13 16:58 | 54.00388 | -29.90586 | 37450 ft | 444 kts | 261° |
| 2026-04-13 16:59 | 54.00009 | -30.00776 | 37440 ft | 445 kts | 263° |
| 2026-04-13 16:59 | 53.99901 | -30.11342 | 37426 ft | 446 kts | 264° |
| 2026-04-13 17:00 | 53.99804 | -30.21900 | 37421 ft | 446 kts | 264° |
| 2026-04-13 17:00 | 53.99696 | -30.32460 | 37449 ft | 446 kts | 263° |
| 2026-04-13 17:01 | 53.99579 | -30.43062 | 37457 ft | 449 kts | 263° |
| 2026-04-13 17:01 | 53.99448 | -30.53716 | 37426 ft | 451 kts | 263° |
| 2026-04-13 17:02 | 53.99310 | -30.64395 | 37427 ft | 451 kts | 263° |
| 2026-04-13 17:02 | 53.99163 | -30.75082 | 37423 ft | 451 kts | 263° |
| 2026-04-13 17:03 | 53.99006 | -30.85751 | 37420 ft | 451 kts | 263° |
| 2026-04-13 17:03 | 53.98840 | -30.96441 | 37423 ft | 453 kts | 263° |
| 2026-04-13 17:04 | 53.98662 | -31.07175 | 37422 ft | 454 kts | 263° |
| 2026-04-13 17:04 | 53.98475 | -31.17920 | 37402 ft | 454 kts | 263° |
| 2026-04-13 17:05 | 53.98278 | -31.28655 | 37399 ft | 454 kts | 263° |
| 2026-04-13 17:05 | 53.98072 | -31.39396 | 37386 ft | 454 kts | 263° |
| 2026-04-13 17:06 | 53.97857 | -31.50138 | 37425 ft | 454 kts | 262° |
| 2026-04-13 17:06 | 53.97629 | -31.60922 | 37401 ft | 458 kts | 262° |
| 2026-04-13 17:07 | 53.97394 | -31.71684 | 37392 ft | 458 kts | 262° |
| 2026-04-13 17:07 | 53.97148 | -31.82520 | 37391 ft | 458 kts | 262° |
| 2026-04-13 17:08 | 53.96892 | -31.93356 | 37380 ft | 458 kts | 262° |
| 2026-04-13 17:08 | 53.96625 | -32.04194 | 37379 ft | 458 kts | 262° |
| 2026-04-13 17:09 | 53.96396 | -32.13196 | 37391 ft | 459 kts | 262° |
| 2026-04-13 17:09 | 53.96110 | -32.24068 | 37379 ft | 461 kts | 262° |
| 2026-04-13 17:10 | 53.95813 | -32.35039 | 37364 ft | 461 kts | 262° |
| 2026-04-13 17:10 | 53.95510 | -32.45848 | 37363 ft | 461 kts | 262° |
| 2026-04-13 17:11 | 53.95193 | -32.56818 | 37364 ft | 461 kts | 262° |
| 2026-04-13 17:11 | 53.94866 | -32.67713 | 37365 ft | 462 kts | 262° |
| 2026-04-13 17:12 | 53.94529 | -32.78639 | 37363 ft | 464 kts | 262° |
| 2026-04-13 17:12 | 53.94183 | -32.89590 | 37348 ft | 464 kts | 262° |
| 2026-04-13 17:13 | 53.93826 | -33.00548 | 37347 ft | 464 kts | 262° |
| 2026-04-13 17:13 | 53.93459 | -33.11489 | 37341 ft | 464 kts | 261° |
| 2026-04-13 17:14 | 53.93082 | -33.22441 | 37342 ft | 464 kts | 261° |
| 2026-04-13 17:14 | 53.92695 | -33.33383 | 37369 ft | 464 kts | 261° |
| 2026-04-13 17:15 | 53.92300 | -33.44263 | 37326 ft | 464 kts | 261° |
| 2026-04-13 17:15 | 53.91893 | -33.55219 | 37336 ft | 464 kts | 261° |
| 2026-04-13 17:16 | 53.91476 | -33.66156 | 37327 ft | 464 kts | 261° |
| 2026-04-13 17:16 | 53.91049 | -33.77110 | 37329 ft | 464 kts | 261° |
| 2026-04-13 17:17 | 53.90612 | -33.88051 | 37328 ft | 464 kts | 261° |
| 2026-04-13 17:17 | 53.90165 | -33.98992 | 37337 ft | 464 kts | 261° |
| 2026-04-13 17:18 | 53.89708 | -34.09933 | 37314 ft | 464 kts | 261° |
| 2026-04-13 17:18 | 53.89242 | -34.20854 | 37309 ft | 464 kts | 261° |
| 2026-04-13 17:19 | 53.88764 | -34.31796 | 37314 ft | 464 kts | 261° |
| 2026-04-13 17:19 | 53.88278 | -34.42718 | 37302 ft | 464 kts | 261° |
| 2026-04-13 17:20 | 53.87780 | -34.53641 | 37315 ft | 465 kts | 261° |
| 2026-04-13 17:20 | 53.87271 | -34.64591 | 37299 ft | 465 kts | 261° |
| 2026-04-13 17:21 | 53.86755 | -34.75549 | 37305 ft | 466 kts | 260° |
| 2026-04-13 17:21 | 53.86228 | -34.86524 | 37294 ft | 467 kts | 260° |
| 2026-04-13 17:22 | 53.85688 | -34.97506 | 37295 ft | 467 kts | 260° |
| 2026-04-13 17:22 | 53.85138 | -35.08476 | 37284 ft | 467 kts | 260° |
| 2026-04-13 17:23 | 53.84572 | -35.19463 | 37296 ft | 468 kts | 261° |
| 2026-04-13 17:23 | 53.84002 | -35.30480 | 37281 ft | 469 kts | 261° |
| 2026-04-13 17:24 | 53.83422 | -35.41492 | 37286 ft | 469 kts | 260° |
| 2026-04-13 17:24 | 53.82831 | -35.52503 | 37275 ft | 469 kts | 260° |
| 2026-04-13 17:25 | 53.82229 | -35.63512 | 37284 ft | 469 kts | 260° |
| 2026-04-13 17:25 | 53.81616 | -35.74506 | 37284 ft | 469 kts | 260° |
| 2026-04-13 17:26 | 53.80992 | -35.85528 | 37283 ft | 471 kts | 260° |
| 2026-04-13 17:26 | 53.80358 | -35.96573 | 37270 ft | 472 kts | 260° |
| 2026-04-13 17:27 | 53.79384 | -36.13180 | 37266 ft | 472 kts | 260° |
| 2026-04-13 17:27 | 53.78723 | -36.24231 | 37255 ft | 472 kts | 260° |
| 2026-04-13 17:28 | 53.78048 | -36.35298 | 37267 ft | 473 kts | 260° |
| 2026-04-13 17:28 | 53.77365 | -36.46374 | 37257 ft | 473 kts | 260° |
| 2026-04-13 17:29 | 53.76671 | -36.57458 | 37254 ft | 473 kts | 260° |
| 2026-04-13 17:29 | 53.75967 | -36.68534 | 37246 ft | 473 kts | 259° |
| 2026-04-13 17:30 | 53.75252 | -36.79606 | 37245 ft | 473 kts | 259° |
| 2026-04-13 17:30 | 53.74525 | -36.90676 | 37265 ft | 474 kts | 260° |
| 2026-04-13 17:31 | 53.73784 | -37.01779 | 37245 ft | 475 kts | 260° |
| 2026-04-13 17:31 | 53.73043 | -37.12809 | 37243 ft | 475 kts | 260° |
| 2026-04-13 17:32 | 53.72286 | -37.23920 | 37240 ft | 475 kts | 260° |
| 2026-04-13 17:32 | 53.71518 | -37.35012 | 37231 ft | 475 kts | 260° |
| 2026-04-13 17:33 | 53.70738 | -37.46112 | 37236 ft | 475 kts | 260° |
| 2026-04-13 17:33 | 53.69945 | -37.57214 | 37238 ft | 476 kts | 260° |
| 2026-04-13 17:34 | 53.68742 | -37.73868 | 37232 ft | 476 kts | 260° |
| 2026-04-13 17:35 | 53.67926 | -37.84961 | 37227 ft | 476 kts | 260° |
| 2026-04-13 17:35 | 53.67100 | -37.96042 | 37230 ft | 476 kts | 260° |
| 2026-04-13 17:36 | 53.66263 | -38.07111 | 37241 ft | 476 kts | 260° |
| 2026-04-13 17:36 | 53.65410 | -38.18215 | 37224 ft | 477 kts | 260° |
| 2026-04-13 17:37 | 53.64555 | -38.29309 | 37208 ft | 477 kts | 260° |
| 2026-04-13 17:37 | 53.63687 | -38.40410 | 37205 ft | 477 kts | 260° |
| 2026-04-13 17:38 | 53.62808 | -38.51504 | 37208 ft | 477 kts | 260° |
| 2026-04-13 17:38 | 53.61918 | -38.62594 | 37200 ft | 477 kts | 260° |
| 2026-04-13 17:39 | 53.61014 | -38.73687 | 37214 ft | 477 kts | 260° |
| 2026-04-13 17:39 | 53.60105 | -38.84770 | 37203 ft | 477 kts | 260° |
| 2026-04-13 17:40 | 53.59185 | -38.95844 | 37203 ft | 477 kts | 260° |
| 2026-04-13 17:40 | 53.58258 | -39.06933 | 37189 ft | 478 kts | 259° |
| 2026-04-13 17:41 | 53.57306 | -39.18013 | 37195 ft | 478 kts | 259° |
| 2026-04-13 17:41 | 53.56350 | -39.29094 | 37198 ft | 478 kts | 259° |
| 2026-04-13 17:42 | 53.55388 | -39.40193 | 37187 ft | 479 kts | 259° |
| 2026-04-13 17:42 | 53.54415 | -39.51287 | 37186 ft | 479 kts | 260° |
| 2026-04-13 17:43 | 53.53432 | -39.62385 | 37184 ft | 479 kts | 259° |
| 2026-04-13 17:43 | 53.52434 | -39.73471 | 37179 ft | 479 kts | 259° |
| 2026-04-13 17:44 | 53.51426 | -39.84551 | 37186 ft | 479 kts | 259° |
| 2026-04-13 17:44 | 53.50408 | -39.95626 | 37178 ft | 479 kts | 259° |
| 2026-04-13 17:45 | 53.49336 | -40.06692 | 37177 ft | 479 kts | 257° |
| 2026-04-13 17:45 | 53.48164 | -40.17746 | 37176 ft | 480 kts | 258° |
| 2026-04-13 17:46 | 53.46986 | -40.28776 | 37179 ft | 480 kts | 257° |
| 2026-04-13 17:46 | 53.45794 | -40.39851 | 37186 ft | 479 kts | 257° |
| 2026-04-13 17:47 | 53.44601 | -40.50863 | 37178 ft | 479 kts | 258° |
| 2026-04-13 17:47 | 53.43408 | -40.61867 | 37168 ft | 479 kts | 257° |
| 2026-04-13 17:48 | 53.42209 | -40.72787 | 37176 ft | 479 kts | 257° |
| 2026-04-13 17:48 | 53.40990 | -40.83787 | 37173 ft | 479 kts | 257° |
| 2026-04-13 17:49 | 53.39764 | -40.94778 | 37178 ft | 479 kts | 258° |
| 2026-04-13 17:49 | 53.38526 | -41.05728 | 37171 ft | 477 kts | 258° |
| 2026-04-13 17:50 | 53.37278 | -41.16662 | 37188 ft | 477 kts | 258° |
| 2026-04-13 17:50 | 53.36029 | -41.27570 | 37188 ft | 476 kts | 258° |
| 2026-04-13 17:51 | 53.34772 | -41.38475 | 37187 ft | 476 kts | 258° |
| 2026-04-13 17:51 | 53.33502 | -41.49365 | 37184 ft | 476 kts | 258° |
| 2026-04-13 17:52 | 53.32217 | -41.60243 | 37211 ft | 476 kts | 258° |
| 2026-04-13 17:52 | 53.30930 | -41.71121 | 37209 ft | 476 kts | 258° |
| 2026-04-13 17:53 | 53.29853 | -41.80139 | 37209 ft | 476 kts | 258° |
| 2026-04-13 17:53 | 53.28545 | -41.91007 | 37204 ft | 476 kts | 258° |
| 2026-04-13 17:54 | 53.27229 | -42.01862 | 37228 ft | 476 kts | 258° |
| 2026-04-13 17:54 | 53.25897 | -42.12712 | 37229 ft | 476 kts | 258° |
| 2026-04-13 17:55 | 53.24560 | -42.23546 | 37230 ft | 476 kts | 258° |
| 2026-04-13 17:55 | 53.23214 | -42.34381 | 37232 ft | 476 kts | 258° |
| 2026-04-13 17:56 | 53.21859 | -42.45200 | 37256 ft | 476 kts | 258° |
| 2026-04-13 17:56 | 53.20494 | -42.56017 | 37256 ft | 476 kts | 258° |
| 2026-04-13 17:57 | 53.19116 | -42.66826 | 37255 ft | 476 kts | 258° |
| 2026-04-13 17:57 | 53.17728 | -42.77613 | 37257 ft | 475 kts | 259° |
| 2026-04-13 17:58 | 53.16339 | -42.88391 | 37277 ft | 475 kts | 259° |
| 2026-04-13 17:58 | 53.14938 | -42.99165 | 37279 ft | 475 kts | 258° |
| 2026-04-13 17:59 | 53.13525 | -43.09926 | 37287 ft | 475 kts | 258° |
| 2026-04-13 17:59 | 53.12101 | -43.20679 | 37290 ft | 475 kts | 259° |
| 2026-04-13 18:00 | 53.10667 | -43.31429 | 37310 ft | 476 kts | 259° |
| 2026-04-13 18:00 | 53.09224 | -43.42200 | 37313 ft | 476 kts | 259° |
| 2026-04-13 18:01 | 53.07769 | -43.52960 | 37316 ft | 476 kts | 259° |
| 2026-04-13 18:01 | 53.06307 | -43.63705 | 37318 ft | 476 kts | 259° |
| 2026-04-13 18:02 | 53.04834 | -43.74447 | 37345 ft | 476 kts | 258° |
| 2026-04-13 18:02 | 53.03349 | -43.85172 | 37348 ft | 475 kts | 258° |
| 2026-04-13 18:03 | 53.01860 | -43.95869 | 37353 ft | 475 kts | 258° |
| 2026-04-13 18:03 | 53.00362 | -44.06571 | 37355 ft | 475 kts | 259° |
| 2026-04-13 18:04 | 52.98855 | -44.17257 | 37375 ft | 475 kts | 258° |
| 2026-04-13 18:04 | 52.97344 | -44.27862 | 37381 ft | 475 kts | 258° |
| 2026-04-13 18:05 | 52.95817 | -44.38505 | 37377 ft | 472 kts | 259° |
| 2026-04-13 18:05 | 52.94291 | -44.49124 | 37387 ft | 473 kts | 258° |
| 2026-04-13 18:06 | 52.92752 | -44.59726 | 37403 ft | 473 kts | 258° |
| 2026-04-13 18:06 | 52.91200 | -44.70321 | 37412 ft | 472 kts | 259° |
| 2026-04-13 18:07 | 52.89641 | -44.80911 | 37415 ft | 472 kts | 259° |
| 2026-04-13 18:07 | 52.88076 | -44.91478 | 37419 ft | 471 kts | 258° |
| 2026-04-13 18:08 | 52.86510 | -45.01983 | 37419 ft | 469 kts | 258° |
| 2026-04-13 18:08 | 52.84934 | -45.12476 | 37419 ft | 469 kts | 259° |
| 2026-04-13 18:09 | 52.83352 | -45.22965 | 37425 ft | 469 kts | 259° |
| 2026-04-13 18:09 | 52.81763 | -45.33426 | 37444 ft | 469 kts | 258° |
| 2026-04-13 18:10 | 52.80165 | -45.43840 | 37447 ft | 466 kts | 258° |
| 2026-04-13 18:10 | 52.78563 | -45.54223 | 37459 ft | 465 kts | 258° |
| 2026-04-13 18:11 | 52.76959 | -45.64587 | 37464 ft | 466 kts | 259° |
| 2026-04-13 18:11 | 52.75346 | -45.74954 | 37487 ft | 466 kts | 258° |
| 2026-04-13 18:12 | 52.73716 | -45.85310 | 37487 ft | 465 kts | 258° |
| 2026-04-13 18:12 | 52.72076 | -45.95656 | 37490 ft | 463 kts | 258° |
| 2026-04-13 18:13 | 52.70443 | -46.05935 | 37498 ft | 463 kts | 259° |
| 2026-04-13 18:13 | 52.68807 | -46.16192 | 37518 ft | 463 kts | 259° |
| 2026-04-13 18:14 | 52.67153 | -46.26450 | 37521 ft | 462 kts | 259° |
| 2026-04-13 18:14 | 52.65489 | -46.36705 | 37524 ft | 461 kts | 258° |
| 2026-04-13 18:15 | 52.63828 | -46.46926 | 37516 ft | 462 kts | 258° |
| 2026-04-13 18:15 | 52.62158 | -46.57112 | 37543 ft | 460 kts | 258° |
| 2026-04-13 18:16 | 52.60479 | -46.67285 | 37555 ft | 460 kts | 259° |
| 2026-04-13 18:16 | 52.58792 | -46.77464 | 37565 ft | 460 kts | 259° |
| 2026-04-13 18:17 | 52.57114 | -46.87547 | 37562 ft | 460 kts | 258° |
| 2026-04-13 18:17 | 52.55411 | -46.97686 | 37576 ft | 460 kts | 258° |
| 2026-04-13 18:18 | 52.53693 | -47.07818 | 37579 ft | 460 kts | 258° |
| 2026-04-13 18:18 | 52.51972 | -47.17950 | 37584 ft | 460 kts | 258° |
| 2026-04-13 18:19 | 52.50247 | -47.28065 | 37595 ft | 460 kts | 258° |
| 2026-04-13 18:19 | 52.48509 | -47.38180 | 37594 ft | 460 kts | 258° |
| 2026-04-13 18:20 | 52.46764 | -47.48280 | 37609 ft | 460 kts | 258° |
| 2026-04-13 18:20 | 52.45006 | -47.58377 | 37610 ft | 459 kts | 258° |
| 2026-04-13 18:21 | 52.43247 | -47.68447 | 37626 ft | 459 kts | 258° |
| 2026-04-13 18:21 | 52.41481 | -47.78504 | 37633 ft | 459 kts | 258° |
| 2026-04-13 18:22 | 52.39705 | -47.88553 | 37640 ft | 459 kts | 258° |
| 2026-04-13 18:22 | 52.37919 | -47.98597 | 37638 ft | 458 kts | 258° |
| 2026-04-13 18:23 | 52.36127 | -48.08619 | 37644 ft | 459 kts | 258° |
| 2026-04-13 18:23 | 52.34328 | -48.18625 | 37664 ft | 457 kts | 258° |
| 2026-04-13 18:24 | 52.32525 | -48.28611 | 37674 ft | 457 kts | 258° |
| 2026-04-13 18:24 | 52.30712 | -48.38586 | 37660 ft | 457 kts | 258° |
| 2026-04-13 18:25 | 52.28892 | -48.48539 | 37685 ft | 456 kts | 258° |
| 2026-04-13 18:25 | 52.27071 | -48.58459 | 37672 ft | 456 kts | 258° |
| 2026-04-13 18:26 | 52.25232 | -48.68398 | 37703 ft | 454 kts | 259° |
| 2026-04-13 18:26 | 52.23401 | -48.78275 | 37704 ft | 454 kts | 259° |
| 2026-04-13 18:27 | 52.21559 | -48.88152 | 37712 ft | 454 kts | 258° |
| 2026-04-13 18:27 | 52.19709 | -48.98015 | 37732 ft | 454 kts | 258° |
| 2026-04-13 18:28 | 52.17853 | -49.07857 | 37731 ft | 454 kts | 258° |
| 2026-04-13 18:28 | 52.15982 | -49.17685 | 37730 ft | 452 kts | 259° |
| 2026-04-13 18:29 | 52.14119 | -49.27477 | 37737 ft | 452 kts | 259° |
| 2026-04-13 18:29 | 52.12247 | -49.37260 | 37750 ft | 451 kts | 259° |
| 2026-04-13 18:30 | 52.10371 | -49.46995 | 37754 ft | 450 kts | 259° |
| 2026-04-13 18:30 | 52.08492 | -49.56710 | 37773 ft | 450 kts | 259° |
| 2026-04-13 18:31 | 52.06602 | -49.66403 | 37760 ft | 448 kts | 259° |
| 2026-04-13 18:31 | 52.04719 | -49.76046 | 37796 ft | 447 kts | 259° |
| 2026-04-13 18:32 | 52.02826 | -49.85693 | 37797 ft | 447 kts | 259° |
| 2026-04-13 18:32 | 52.00923 | -49.95324 | 37811 ft | 447 kts | 259° |
| 2026-04-13 18:33 | 51.98827 | -50.04865 | 37813 ft | 450 kts | 256° |
| 2026-04-13 18:33 | 51.96547 | -50.14343 | 37811 ft | 450 kts | 257° |
| 2026-04-13 18:34 | 51.93121 | -50.28499 | 37838 ft | 449 kts | 257° |
| 2026-04-13 18:34 | 51.90830 | -50.37929 | 37830 ft | 449 kts | 257° |
| 2026-04-13 18:35 | 51.88535 | -50.47322 | 37839 ft | 448 kts | 257° |
| 2026-04-13 18:35 | 51.86254 | -50.56633 | 37850 ft | 448 kts | 257° |
| 2026-04-13 18:36 | 51.83944 | -50.66015 | 37865 ft | 448 kts | 257° |
| 2026-04-13 18:36 | 51.81629 | -50.75377 | 37883 ft | 448 kts | 257° |
| 2026-04-13 18:37 | 51.79309 | -50.84720 | 37879 ft | 448 kts | 257° |
| 2026-04-13 18:37 | 51.76975 | -50.94076 | 37886 ft | 448 kts | 256° |
| 2026-04-13 18:38 | 51.74640 | -51.03400 | 37900 ft | 448 kts | 256° |
| 2026-04-13 18:38 | 51.72287 | -51.12727 | 37894 ft | 448 kts | 257° |
| 2026-04-13 18:39 | 51.69938 | -51.22039 | 37908 ft | 448 kts | 257° |
| 2026-04-13 18:39 | 51.67581 | -51.31340 | 37922 ft | 448 kts | 257° |
| 2026-04-13 18:40 | 51.65613 | -51.39073 | 37923 ft | 448 kts | 257° |
| 2026-04-13 18:40 | 51.63241 | -51.48345 | 37935 ft | 446 kts | 257° |
| 2026-04-13 18:41 | 51.60875 | -51.57546 | 37925 ft | 440 kts | 257° |
| 2026-04-13 18:41 | 51.58544 | -51.66591 | 37950 ft | 436 kts | 257° |
| 2026-04-13 18:42 | 51.56214 | -51.75612 | 37952 ft | 436 kts | 257° |
| 2026-04-13 18:42 | 51.53878 | -51.84620 | 37963 ft | 436 kts | 257° |
| 2026-04-13 18:43 | 51.51533 | -51.93615 | 37971 ft | 436 kts | 257° |
| 2026-04-13 18:43 | 51.49186 | -52.02574 | 37963 ft | 434 kts | 257° |
| 2026-04-13 18:44 | 51.46840 | -52.11494 | 37980 ft | 432 kts | 257° |
| 2026-04-13 18:44 | 51.44511 | -52.20330 | 37994 ft | 432 kts | 257° |
| 2026-04-13 18:45 | 51.42161 | -52.29207 | 38000 ft | 432 kts | 257° |
| 2026-04-13 18:45 | 51.39802 | -52.38080 | 38006 ft | 432 kts | 257° |
| 2026-04-13 18:46 | 51.37437 | -52.46937 | 37959 ft | 431 kts | 257° |
| 2026-04-13 18:46 | 51.35085 | -52.55722 | 37996 ft | 428 kts | 257° |
| 2026-04-13 18:47 | 51.32730 | -52.64473 | 38018 ft | 427 kts | 257° |
| 2026-04-13 18:47 | 51.30372 | -52.73207 | 38037 ft | 427 kts | 257° |
| 2026-04-13 18:48 | 51.28008 | -52.81929 | 38036 ft | 427 kts | 256° |
| 2026-04-13 18:48 | 51.25636 | -52.90649 | 37987 ft | 427 kts | 256° |
| 2026-04-13 18:49 | 51.23256 | -52.99365 | 38031 ft | 428 kts | 256° |
| 2026-04-13 18:49 | 51.20871 | -53.08061 | 38035 ft | 428 kts | 256° |
| 2026-04-13 18:50 | 51.18384 | -53.16724 | 38053 ft | 432 kts | 253° |
| 2026-04-13 18:50 | 51.15362 | -53.25100 | 38054 ft | 440 kts | 247° |
| 2026-04-13 18:51 | 51.11742 | -53.33081 | 38001 ft | 449 kts | 242° |
| 2026-04-13 18:51 | 51.07828 | -53.40829 | 38058 ft | 448 kts | 242° |
| 2026-04-13 18:52 | 51.03917 | -53.48572 | 38066 ft | 448 kts | 242° |
| 2026-04-13 18:52 | 51.00003 | -53.56296 | 38075 ft | 449 kts | 242° |
| 2026-04-13 18:53 | 50.96084 | -53.64004 | 38076 ft | 449 kts | 242° |
| 2026-04-13 18:53 | 50.92157 | -53.71700 | 38068 ft | 448 kts | 242° |
| 2026-04-13 18:54 | 50.88235 | -53.79370 | 38083 ft | 448 kts | 242° |
| 2026-04-13 18:54 | 50.84304 | -53.87033 | 38080 ft | 448 kts | 242° |
| 2026-04-13 18:55 | 50.80369 | -53.94681 | 38074 ft | 448 kts | 242° |
| 2026-04-13 18:55 | 50.76431 | -54.02311 | 38063 ft | 448 kts | 242° |
| 2026-04-13 18:56 | 50.72481 | -54.09944 | 38088 ft | 448 kts | 242° |
| 2026-04-13 18:56 | 50.68525 | -54.17565 | 38089 ft | 449 kts | 242° |
| 2026-04-13 18:57 | 50.64562 | -54.25177 | 38094 ft | 448 kts | 242° |
| 2026-04-13 18:57 | 50.60596 | -54.32770 | 38052 ft | 448 kts | 242° |
| 2026-04-13 18:58 | 50.56656 | -54.40289 | 38097 ft | 447 kts | 242° |
| 2026-04-13 18:58 | 50.52690 | -54.47843 | 38093 ft | 447 kts | 242° |
| 2026-04-13 18:59 | 50.48719 | -54.55384 | 38098 ft | 447 kts | 242° |
| 2026-04-13 18:59 | 50.44742 | -54.62913 | 38103 ft | 448 kts | 242° |
| 2026-04-13 19:00 | 50.40760 | -54.70428 | 38099 ft | 448 kts | 241° |
| 2026-04-13 19:00 | 50.36774 | -54.77930 | 38104 ft | 448 kts | 241° |
| 2026-04-13 19:01 | 50.32779 | -54.85425 | 38099 ft | 448 kts | 241° |
| 2026-04-13 19:01 | 50.28784 | -54.92900 | 38096 ft | 448 kts | 241° |
| 2026-04-13 19:02 | 50.24782 | -55.00362 | 38089 ft | 448 kts | 242° |
| 2026-04-13 19:02 | 50.20774 | -55.07821 | 38096 ft | 448 kts | 242° |
| 2026-04-13 19:03 | 50.16753 | -55.15281 | 38101 ft | 448 kts | 241° |
| 2026-04-13 19:03 | 50.12735 | -55.22715 | 38105 ft | 448 kts | 241° |
| 2026-04-13 19:04 | 50.08712 | -55.30129 | 38092 ft | 447 kts | 242° |
| 2026-04-13 19:04 | 50.04694 | -55.37521 | 38104 ft | 447 kts | 242° |
| 2026-04-13 19:05 | 50.00675 | -55.44896 | 38102 ft | 447 kts | 242° |
| 2026-04-13 19:05 | 49.96636 | -55.52284 | 38098 ft | 447 kts | 241° |
| 2026-04-13 19:06 | 49.92607 | -55.59625 | 38075 ft | 446 kts | 242° |
| 2026-04-13 19:06 | 49.88586 | -55.66935 | 38090 ft | 445 kts | 242° |
| 2026-04-13 19:07 | 49.84564 | -55.74232 | 38090 ft | 444 kts | 242° |
| 2026-04-13 19:07 | 49.80540 | -55.81512 | 38101 ft | 444 kts | 242° |
| 2026-04-13 19:08 | 49.76510 | -55.88778 | 38070 ft | 444 kts | 242° |
| 2026-04-13 19:08 | 49.72486 | -55.96010 | 38093 ft | 443 kts | 242° |
| 2026-04-13 19:09 | 49.68466 | -56.03222 | 38098 ft | 443 kts | 242° |
| 2026-04-13 19:09 | 49.64467 | -56.10377 | 38095 ft | 443 kts | 242° |
| 2026-04-13 19:10 | 49.60440 | -56.17560 | 38063 ft | 442 kts | 242° |
| 2026-04-13 19:10 | 49.56418 | -56.24712 | 38089 ft | 440 kts | 242° |
| 2026-04-13 19:11 | 49.52370 | -56.31894 | 38098 ft | 440 kts | 241° |
| 2026-04-13 19:11 | 49.48378 | -56.38953 | 38093 ft | 440 kts | 241° |
| 2026-04-13 19:12 | 49.44349 | -56.46061 | 38108 ft | 440 kts | 241° |
| 2026-04-13 19:12 | 49.40335 | -56.53121 | 38100 ft | 437 kts | 241° |
| 2026-04-13 19:13 | 49.36331 | -56.60145 | 38108 ft | 436 kts | 241° |
| 2026-04-13 19:13 | 49.32327 | -56.67153 | 38115 ft | 436 kts | 241° |
| 2026-04-13 19:14 | 49.28319 | -56.74147 | 38114 ft | 436 kts | 241° |
| 2026-04-13 19:14 | 49.24310 | -56.81121 | 38104 ft | 434 kts | 241° |
| 2026-04-13 19:15 | 49.20321 | -56.88044 | 38113 ft | 433 kts | 241° |
| 2026-04-13 19:15 | 49.16329 | -56.94958 | 38119 ft | 433 kts | 241° |
| 2026-04-13 19:16 | 49.12333 | -57.01860 | 38119 ft | 433 kts | 241° |
| 2026-04-13 19:16 | 49.08335 | -57.08745 | 38107 ft | 433 kts | 241° |
| 2026-04-13 19:17 | 49.04340 | -57.15606 | 38114 ft | 432 kts | 241° |
| 2026-04-13 19:17 | 49.00340 | -57.22460 | 38094 ft | 432 kts | 240° |
| 2026-04-13 19:18 | 48.96336 | -57.29301 | 38098 ft | 432 kts | 240° |
| 2026-04-13 19:18 | 48.92327 | -57.36133 | 38069 ft | 432 kts | 240° |
| 2026-04-13 19:19 | 48.88315 | -57.42952 | 38101 ft | 432 kts | 240° |
| 2026-04-13 19:19 | 48.84301 | -57.49757 | 38103 ft | 432 kts | 240° |
| 2026-04-13 19:20 | 48.80280 | -57.56557 | 38099 ft | 432 kts | 240° |
| 2026-04-13 19:20 | 48.76257 | -57.63342 | 38116 ft | 432 kts | 240° |
| 2026-04-13 19:21 | 48.72226 | -57.70120 | 38116 ft | 432 kts | 240° |
| 2026-04-13 19:21 | 48.68192 | -57.76888 | 38114 ft | 432 kts | 240° |
| 2026-04-13 19:22 | 48.64159 | -57.83638 | 38105 ft | 432 kts | 240° |
| 2026-04-13 19:22 | 48.60118 | -57.90384 | 38061 ft | 432 kts | 240° |
| 2026-04-13 19:23 | 48.56073 | -57.97118 | 38086 ft | 432 kts | 240° |
| 2026-04-13 19:23 | 48.52030 | -58.03832 | 38091 ft | 432 kts | 240° |
| 2026-04-13 19:24 | 48.47981 | -58.10538 | 38092 ft | 432 kts | 240° |
| 2026-04-13 19:24 | 48.43928 | -58.17234 | 38089 ft | 432 kts | 240° |
| 2026-04-13 19:25 | 48.39875 | -58.23914 | 38078 ft | 431 kts | 240° |
| 2026-04-13 19:25 | 48.35817 | -58.30584 | 38085 ft | 431 kts | 240° |
| 2026-04-13 19:26 | 48.32446 | -58.36112 | 38083 ft | 432 kts | 240° |
| 2026-04-13 19:26 | 48.28382 | -58.42762 | 38073 ft | 431 kts | 239° |
| 2026-04-13 19:27 | 48.24320 | -58.49396 | 38047 ft | 432 kts | 239° |
| 2026-04-13 19:27 | 48.20248 | -58.56022 | 38049 ft | 432 kts | 239° |
| 2026-04-13 19:28 | 48.16165 | -58.62650 | 38053 ft | 432 kts | 239° |
| 2026-04-13 19:28 | 48.12080 | -58.69265 | 38053 ft | 432 kts | 239° |
| 2026-04-13 19:29 | 48.07992 | -58.75874 | 38031 ft | 433 kts | 239° |
| 2026-04-13 19:29 | 48.03889 | -58.82484 | 38050 ft | 433 kts | 238° |
| 2026-04-13 19:30 | 47.99781 | -58.89085 | 38056 ft | 433 kts | 238° |
| 2026-04-13 19:30 | 47.95671 | -58.95672 | 38048 ft | 433 kts | 238° |
| 2026-04-13 19:31 | 47.91561 | -59.02252 | 38037 ft | 432 kts | 238° |
| 2026-04-13 19:31 | 47.87458 | -59.08795 | 38046 ft | 431 kts | 238° |
| 2026-04-13 19:32 | 47.83353 | -59.15326 | 38052 ft | 431 kts | 238° |
| 2026-04-13 19:32 | 47.79248 | -59.21842 | 38051 ft | 431 kts | 238° |
| 2026-04-13 19:33 | 47.75142 | -59.28350 | 38013 ft | 431 kts | 237° |
| 2026-04-13 19:34 | 47.68981 | -59.38073 | 38031 ft | 430 kts | 237° |
| 2026-04-13 19:34 | 47.64865 | -59.44548 | 38027 ft | 430 kts | 237° |
| 2026-04-13 19:35 | 47.60753 | -59.51004 | 38021 ft | 430 kts | 237° |
| 2026-04-13 19:35 | 47.56642 | -59.57447 | 38008 ft | 430 kts | 237° |
| 2026-04-13 19:36 | 47.52523 | -59.63879 | 38017 ft | 430 kts | 237° |
| 2026-04-13 19:36 | 47.48406 | -59.70294 | 38019 ft | 430 kts | 237° |
| 2026-04-13 19:37 | 47.44285 | -59.76699 | 38010 ft | 430 kts | 237° |
| 2026-04-13 19:37 | 47.40163 | -59.83090 | 38002 ft | 429 kts | 236° |
| 2026-04-13 19:38 | 47.36030 | -59.89456 | 38009 ft | 429 kts | 236° |
| 2026-04-13 19:38 | 47.31895 | -59.95809 | 38015 ft | 429 kts | 236° |
| 2026-04-13 19:39 | 47.27759 | -60.02151 | 38015 ft | 429 kts | 236° |
| 2026-04-13 19:39 | 47.23647 | -60.08446 | 37988 ft | 430 kts | 236° |
| 2026-04-13 19:40 | 47.19493 | -60.14785 | 38000 ft | 430 kts | 236° |
| 2026-04-13 19:40 | 47.15334 | -60.21116 | 37996 ft | 430 kts | 236° |
| 2026-04-13 19:41 | 47.11174 | -60.27435 | 37999 ft | 430 kts | 236° |
| 2026-04-13 19:41 | 47.07010 | -60.33744 | 38001 ft | 430 kts | 236° |
| 2026-04-13 19:42 | 47.00757 | -60.43191 | 37999 ft | 430 kts | 236° |
| 2026-04-13 19:42 | 46.96585 | -60.49482 | 38005 ft | 430 kts | 235° |
| 2026-04-13 19:43 | 46.92403 | -60.55767 | 37990 ft | 430 kts | 235° |
| 2026-04-13 19:43 | 46.88216 | -60.62041 | 38003 ft | 431 kts | 235° |
| 2026-04-13 19:44 | 46.84028 | -60.68301 | 38015 ft | 431 kts | 235° |
| 2026-04-13 19:44 | 46.79836 | -60.74554 | 38026 ft | 430 kts | 235° |
| 2026-04-13 19:45 | 46.75641 | -60.80799 | 38010 ft | 431 kts | 234° |
| 2026-04-13 19:45 | 46.71438 | -60.87039 | 38006 ft | 431 kts | 234° |
| 2026-04-13 19:46 | 46.67237 | -60.93263 | 38010 ft | 431 kts | 234° |
| 2026-04-13 19:46 | 46.63031 | -60.99480 | 38007 ft | 431 kts | 234° |
| 2026-04-13 19:47 | 46.58828 | -61.05680 | 38000 ft | 431 kts | 234° |
| 2026-04-13 19:47 | 46.54613 | -61.11879 | 38007 ft | 431 kts | 234° |
| 2026-04-13 19:48 | 46.50397 | -61.18065 | 38008 ft | 430 kts | 234° |
| 2026-04-13 19:48 | 46.46180 | -61.24239 | 38013 ft | 431 kts | 234° |
| 2026-04-13 19:49 | 46.41958 | -61.30410 | 37999 ft | 431 kts | 234° |
| 2026-04-13 19:49 | 46.37731 | -61.36569 | 38007 ft | 431 kts | 234° |
| 2026-04-13 19:50 | 46.33500 | -61.42719 | 38010 ft | 431 kts | 234° |
| 2026-04-13 19:50 | 46.29265 | -61.48862 | 38006 ft | 431 kts | 234° |
| 2026-04-13 19:51 | 46.25034 | -61.54989 | 38002 ft | 430 kts | 233° |
| 2026-04-13 19:51 | 46.20808 | -61.61088 | 37984 ft | 429 kts | 233° |
| 2026-04-13 19:52 | 46.16573 | -61.67188 | 37989 ft | 430 kts | 233° |
| 2026-04-13 19:52 | 46.12335 | -61.73278 | 37956 ft | 430 kts | 233° |
| 2026-04-13 19:53 | 46.08100 | -61.79355 | 37975 ft | 429 kts | 233° |
| 2026-04-13 19:53 | 46.03867 | -61.85408 | 37976 ft | 429 kts | 233° |
| 2026-04-13 19:54 | 45.99628 | -61.91459 | 37974 ft | 429 kts | 233° |
| 2026-04-13 19:54 | 45.95387 | -61.97498 | 37960 ft | 429 kts | 233° |
| 2026-04-13 19:55 | 45.91152 | -62.03515 | 37979 ft | 428 kts | 233° |
| 2026-04-13 19:55 | 45.86941 | -62.09484 | 37999 ft | 428 kts | 233° |
| 2026-04-13 19:56 | 45.82697 | -62.15488 | 38016 ft | 428 kts | 233° |
| 2026-04-13 19:56 | 45.78455 | -62.21473 | 37996 ft | 427 kts | 233° |
| 2026-04-13 19:57 | 45.74221 | -62.27435 | 38022 ft | 426 kts | 233° |
| 2026-04-13 19:57 | 45.70007 | -62.33356 | 38015 ft | 423 kts | 232° |
| 2026-04-13 19:58 | 45.65804 | -62.39248 | 38012 ft | 423 kts | 232° |
| 2026-04-13 19:58 | 45.61606 | -62.45123 | 37994 ft | 422 kts | 232° |
| 2026-04-13 19:59 | 45.57402 | -62.50989 | 38009 ft | 422 kts | 232° |
| 2026-04-13 19:59 | 45.53192 | -62.56850 | 38012 ft | 422 kts | 232° |
| 2026-04-13 20:00 | 45.48985 | -62.62695 | 38012 ft | 422 kts | 232° |
| 2026-04-13 20:00 | 45.44773 | -62.68535 | 38012 ft | 422 kts | 232° |
| 2026-04-13 20:01 | 45.40559 | -62.74364 | 38012 ft | 422 kts | 232° |
| 2026-04-13 20:01 | 45.36342 | -62.80185 | 38018 ft | 422 kts | 232° |
| 2026-04-13 20:02 | 45.32126 | -62.85992 | 38018 ft | 422 kts | 232° |
| 2026-04-13 20:02 | 45.27898 | -62.91806 | 38019 ft | 423 kts | 232° |
| 2026-04-13 20:03 | 45.23665 | -62.97609 | 38019 ft | 423 kts | 232° |
| 2026-04-13 20:03 | 45.19425 | -63.03409 | 38018 ft | 423 kts | 232° |
| 2026-04-13 20:04 | 45.15184 | -63.09200 | 38002 ft | 423 kts | 232° |
| 2026-04-13 20:04 | 45.10931 | -63.14993 | 38016 ft | 424 kts | 231° |
| 2026-04-13 20:05 | 45.06673 | -63.20782 | 38018 ft | 424 kts | 231° |
| 2026-04-13 20:05 | 45.02408 | -63.26565 | 38017 ft | 424 kts | 231° |
| 2026-04-13 20:06 | 44.98176 | -63.32376 | 37969 ft | 423 kts | 234° |
| 2026-04-13 20:06 | 44.94316 | -63.38583 | 37988 ft | 418 kts | 239° |
| 2026-04-13 20:07 | 44.90945 | -63.45206 | 37987 ft | 413 kts | 244° |
| 2026-04-13 20:07 | 44.88071 | -63.52177 | 37987 ft | 408 kts | 249° |
| 2026-04-13 20:08 | 44.85521 | -63.59322 | 37962 ft | 408 kts | 250° |
| 2026-04-13 20:08 | 44.82964 | -63.66477 | 37988 ft | 408 kts | 249° |
| 2026-04-13 20:09 | 44.80410 | -63.73614 | 37992 ft | 407 kts | 249° |
| 2026-04-13 20:09 | 44.77872 | -63.80695 | 38005 ft | 407 kts | 249° |
| 2026-04-13 20:10 | 44.75312 | -63.87821 | 38005 ft | 407 kts | 249° |
| 2026-04-13 20:10 | 44.72741 | -63.94962 | 37983 ft | 407 kts | 249° |
| 2026-04-13 20:11 | 44.70176 | -64.02067 | 38001 ft | 407 kts | 249° |
| 2026-04-13 20:11 | 44.67606 | -64.09168 | 38004 ft | 407 kts | 249° |
| 2026-04-13 20:12 | 44.65031 | -64.16266 | 38004 ft | 407 kts | 249° |
| 2026-04-13 20:12 | 44.62451 | -64.23357 | 38007 ft | 407 kts | 249° |
| 2026-04-13 20:13 | 44.60306 | -64.29244 | 37982 ft | 407 kts | 249° |
| 2026-04-13 20:13 | 44.57723 | -64.36324 | 37996 ft | 407 kts | 248° |
| 2026-04-13 20:14 | 44.55128 | -64.43398 | 37999 ft | 407 kts | 248° |
| 2026-04-13 20:14 | 44.52531 | -64.50463 | 38003 ft | 407 kts | 248° |
| 2026-04-13 20:15 | 44.49929 | -64.57525 | 37995 ft | 407 kts | 248° |
| 2026-04-13 20:15 | 44.47325 | -64.64579 | 37980 ft | 408 kts | 248° |
| 2026-04-13 20:16 | 44.44710 | -64.71645 | 37990 ft | 409 kts | 248° |
| 2026-04-13 20:16 | 44.42084 | -64.78717 | 38013 ft | 409 kts | 248° |
| 2026-04-13 20:17 | 44.39453 | -64.85785 | 38014 ft | 409 kts | 248° |
| 2026-04-13 20:17 | 44.36820 | -64.92844 | 38012 ft | 409 kts | 247° |
| 2026-04-13 20:18 | 44.34185 | -64.99904 | 38002 ft | 409 kts | 247° |
| 2026-04-13 20:18 | 44.31548 | -65.06930 | 38009 ft | 408 kts | 246° |
| 2026-04-13 20:19 | 44.28904 | -65.13958 | 38008 ft | 408 kts | 246° |
| 2026-04-13 20:19 | 44.26257 | -65.20976 | 38003 ft | 408 kts | 246° |
| 2026-04-13 20:20 | 44.23603 | -65.28000 | 38007 ft | 408 kts | 246° |
| 2026-04-13 20:20 | 44.20951 | -65.35008 | 37998 ft | 408 kts | 246° |
| 2026-04-13 20:21 | 44.18291 | -65.42009 | 38001 ft | 408 kts | 246° |
| 2026-04-13 20:21 | 44.15628 | -65.49003 | 37998 ft | 408 kts | 246° |
| 2026-04-13 20:22 | 44.12963 | -65.55985 | 38017 ft | 408 kts | 246° |
| 2026-04-13 20:22 | 44.10301 | -65.62945 | 37995 ft | 406 kts | 246° |
| 2026-04-13 20:23 | 44.07642 | -65.69877 | 37995 ft | 406 kts | 246° |
| 2026-04-13 20:23 | 44.04977 | -65.76806 | 37993 ft | 406 kts | 246° |
| 2026-04-13 20:24 | 44.02309 | -65.83728 | 37974 ft | 406 kts | 246° |
| 2026-04-13 20:24 | 43.99637 | -65.90643 | 37969 ft | 406 kts | 245° |
| 2026-04-13 20:25 | 43.96962 | -65.97550 | 37931 ft | 405 kts | 245° |
| 2026-04-13 20:25 | 43.94288 | -66.04438 | 37945 ft | 405 kts | 245° |
| 2026-04-13 20:26 | 43.91607 | -66.11325 | 37951 ft | 405 kts | 245° |
| 2026-04-13 20:26 | 43.88924 | -66.18201 | 37975 ft | 405 kts | 245° |
| 2026-04-13 20:27 | 43.86241 | -66.25063 | 37960 ft | 404 kts | 245° |
| 2026-04-13 20:27 | 43.83558 | -66.31903 | 37934 ft | 404 kts | 245° |
| 2026-04-13 20:28 | 43.80891 | -66.38689 | 37947 ft | 403 kts | 245° |
| 2026-04-13 20:28 | 43.78204 | -66.45507 | 37956 ft | 403 kts | 245° |
| 2026-04-13 20:29 | 43.75505 | -66.52340 | 37953 ft | 403 kts | 245° |
| 2026-04-13 20:29 | 43.72804 | -66.59162 | 37939 ft | 403 kts | 245° |
| 2026-04-13 20:30 | 43.70107 | -66.65953 | 37928 ft | 402 kts | 245° |
| 2026-04-13 20:30 | 43.67415 | -66.72723 | 37946 ft | 401 kts | 245° |
| 2026-04-13 20:31 | 43.64724 | -66.79477 | 37956 ft | 400 kts | 244° |
| 2026-04-13 20:31 | 43.62040 | -66.86192 | 37948 ft | 398 kts | 244° |
| 2026-04-13 20:32 | 43.59354 | -66.92891 | 37946 ft | 398 kts | 244° |
| 2026-04-13 20:32 | 43.56787 | -66.99651 | 37935 ft | 396 kts | 248° |
| 2026-04-13 20:33 | 43.54659 | -67.06641 | 37946 ft | 394 kts | 251° |
| 2026-04-13 20:33 | 43.52671 | -67.13688 | 37944 ft | 394 kts | 251° |
| 2026-04-13 20:34 | 43.50680 | -67.20734 | 37945 ft | 394 kts | 251° |
| 2026-04-13 20:34 | 43.48689 | -67.27773 | 37942 ft | 394 kts | 251° |
| 2026-04-13 20:35 | 43.46696 | -67.34804 | 37923 ft | 394 kts | 251° |
| 2026-04-13 20:35 | 43.44695 | -67.41851 | 38104 ft | 396 kts | 251° |
| 2026-04-13 20:36 | 43.43693 | -67.45373 | 38517 ft | 394 kts | 251° |
| 2026-04-13 20:36 | 43.42693 | -67.48881 | 38890 ft | 391 kts | 251° |
| 2026-04-13 20:36 | 43.41698 | -67.52361 | 39150 ft | 391 kts | 251° |
| 2026-04-13 20:36 | 43.40699 | -67.55856 | 39324 ft | 392 kts | 251° |
| 2026-04-13 20:37 | 43.39696 | -67.59359 | 39499 ft | 394 kts | 251° |
| 2026-04-13 20:37 | 43.38692 | -67.62866 | 39670 ft | 394 kts | 251° |
| 2026-04-13 20:37 | 43.37682 | -67.66383 | 39865 ft | 395 kts | 251° |
| 2026-04-13 20:37 | 43.36671 | -67.69903 | 39917 ft | 396 kts | 251° |
| 2026-04-13 20:38 | 43.34638 | -67.76958 | 39926 ft | 396 kts | 251° |
| 2026-04-13 20:38 | 43.32607 | -67.83997 | 39936 ft | 396 kts | 251° |
| 2026-04-13 20:39 | 43.30576 | -67.91020 | 39922 ft | 395 kts | 251° |
| 2026-04-13 20:39 | 43.28537 | -67.98038 | 39924 ft | 395 kts | 251° |
| 2026-04-13 20:40 | 43.26497 | -68.05045 | 39929 ft | 395 kts | 251° |
| 2026-04-13 20:40 | 43.24451 | -68.12049 | 39918 ft | 395 kts | 251° |
| 2026-04-13 20:41 | 43.22402 | -68.19043 | 39920 ft | 394 kts | 251° |
| 2026-04-13 20:41 | 43.20353 | -68.26024 | 39916 ft | 394 kts | 251° |
| 2026-04-13 20:42 | 43.18300 | -68.32998 | 39923 ft | 394 kts | 251° |
| 2026-04-13 20:42 | 43.16247 | -68.39964 | 39924 ft | 393 kts | 250° |
| 2026-04-13 20:43 | 43.14187 | -68.46920 | 39919 ft | 393 kts | 250° |
| 2026-04-13 20:43 | 43.12117 | -68.53888 | 39900 ft | 393 kts | 250° |
| 2026-04-13 20:44 | 43.10065 | -68.60779 | 39918 ft | 393 kts | 250° |
| 2026-04-13 20:44 | 43.07996 | -68.67713 | 39917 ft | 393 kts | 250° |
| 2026-04-13 20:45 | 43.05924 | -68.74638 | 39921 ft | 393 kts | 250° |
| 2026-04-13 20:46 | 43.02805 | -68.85028 | 39933 ft | 393 kts | 250° |
| 2026-04-13 20:46 | 43.00724 | -68.91943 | 39892 ft | 393 kts | 250° |
| 2026-04-13 20:47 | 42.98635 | -68.98851 | 39916 ft | 393 kts | 250° |
| 2026-04-13 20:47 | 42.96545 | -69.05752 | 39913 ft | 393 kts | 250° |
| 2026-04-13 20:48 | 42.94449 | -69.12655 | 39918 ft | 393 kts | 250° |
| 2026-04-13 20:48 | 42.92349 | -69.19549 | 39925 ft | 393 kts | 250° |
| 2026-04-13 20:49 | 42.90245 | -69.26448 | 39913 ft | 392 kts | 249° |
| 2026-04-13 20:49 | 42.88139 | -69.33324 | 39911 ft | 392 kts | 249° |
| 2026-04-13 20:50 | 42.86031 | -69.40192 | 39904 ft | 392 kts | 249° |
| 2026-04-13 20:50 | 42.83920 | -69.47051 | 39909 ft | 392 kts | 249° |
| 2026-04-13 20:51 | 42.81791 | -69.53953 | 39925 ft | 392 kts | 249° |
| 2026-04-13 20:51 | 42.79665 | -69.60825 | 39911 ft | 392 kts | 249° |
| 2026-04-13 20:52 | 42.77534 | -69.67696 | 39870 ft | 393 kts | 249° |
| 2026-04-13 20:52 | 42.75405 | -69.74539 | 39898 ft | 392 kts | 249° |
| 2026-04-13 20:53 | 42.73273 | -69.81379 | 39898 ft | 392 kts | 249° |
| 2026-04-13 20:53 | 42.71138 | -69.88211 | 39915 ft | 392 kts | 249° |
| 2026-04-13 20:54 | 42.68995 | -69.95050 | 39906 ft | 393 kts | 249° |
| 2026-04-13 20:54 | 42.66847 | -70.01885 | 39909 ft | 393 kts | 249° |
| 2026-04-13 20:55 | 42.64695 | -70.08719 | 39897 ft | 393 kts | 249° |
| 2026-04-13 20:55 | 42.62540 | -70.15540 | 39917 ft | 393 kts | 249° |
| 2026-04-13 20:56 | 42.60397 | -70.22313 | 39914 ft | 393 kts | 249° |
| 2026-04-13 20:56 | 42.58225 | -70.29156 | 39912 ft | 395 kts | 249° |
| 2026-04-13 20:57 | 42.56034 | -70.36039 | 39915 ft | 395 kts | 249° |
| 2026-04-13 20:57 | 42.53843 | -70.42902 | 39913 ft | 395 kts | 249° |
| 2026-04-13 20:58 | 42.51654 | -70.49744 | 39907 ft | 394 kts | 249° |
| 2026-04-13 20:58 | 42.49468 | -70.56559 | 39920 ft | 394 kts | 249° |
| 2026-04-13 20:59 | 42.47271 | -70.63392 | 39903 ft | 396 kts | 249° |
| 2026-04-13 20:59 | 42.45439 | -70.69078 | 39900 ft | 396 kts | 249° |
| 2026-04-13 21:00 | 42.43232 | -70.75910 | 39894 ft | 396 kts | 248° |
| 2026-04-13 21:00 | 42.41018 | -70.82742 | 39918 ft | 396 kts | 248° |
| 2026-04-13 21:01 | 42.38808 | -70.89569 | 39912 ft | 395 kts | 249° |
| 2026-04-13 21:01 | 42.36899 | -70.96547 | 39914 ft | 395 kts | 253° |
| 2026-04-13 21:02 | 42.35454 | -71.03719 | 39918 ft | 395 kts | 258° |
| 2026-04-13 21:02 | 42.34480 | -71.11037 | 39919 ft | 395 kts | 262° |
| 2026-04-13 21:03 | 42.33680 | -71.18387 | 39925 ft | 394 kts | 261° |
| 2026-04-13 21:03 | 42.32882 | -71.25728 | 39891 ft | 394 kts | 261° |
| 2026-04-13 21:04 | 42.32085 | -71.33065 | 39896 ft | 394 kts | 261° |
| 2026-04-13 21:04 | 42.31286 | -71.40404 | 39905 ft | 394 kts | 261° |
| 2026-04-13 21:05 | 42.30483 | -71.47742 | 39894 ft | 394 kts | 261° |
| 2026-04-13 21:05 | 42.29678 | -71.55056 | 39937 ft | 393 kts | 261° |
| 2026-04-13 21:06 | 42.28865 | -71.62382 | 39931 ft | 395 kts | 262° |
| 2026-04-13 21:06 | 42.28047 | -71.69738 | 39917 ft | 395 kts | 261° |
| 2026-04-13 21:07 | 42.27223 | -71.77091 | 39923 ft | 396 kts | 261° |
| 2026-04-13 21:07 | 42.26395 | -71.84444 | 39923 ft | 396 kts | 261° |
| 2026-04-13 21:08 | 42.25561 | -71.91807 | 39923 ft | 396 kts | 261° |
| 2026-04-13 21:08 | 42.24716 | -71.99209 | 39907 ft | 400 kts | 262° |
| 2026-04-13 21:09 | 42.23864 | -72.06640 | 39929 ft | 401 kts | 262° |
| 2026-04-13 21:09 | 42.23006 | -72.14085 | 39927 ft | 401 kts | 261° |
| 2026-04-13 21:10 | 42.22143 | -72.21518 | 39910 ft | 399 kts | 261° |
| 2026-04-13 21:10 | 42.21279 | -72.28921 | 39897 ft | 400 kts | 261° |
| 2026-04-13 21:11 | 42.20405 | -72.36369 | 39882 ft | 402 kts | 261° |
| 2026-04-13 21:11 | 42.19524 | -72.43834 | 39869 ft | 403 kts | 261° |
| 2026-04-13 21:12 | 42.18642 | -72.51251 | 39912 ft | 403 kts | 261° |
| 2026-04-13 21:12 | 42.17724 | -72.58766 | 39905 ft | 402 kts | 259° |
| 2026-04-13 21:13 | 42.16284 | -72.66024 | 39910 ft | 406 kts | 253° |
| 2026-04-13 21:13 | 42.14109 | -72.73090 | 39908 ft | 409 kts | 247° |
| 2026-04-13 21:14 | 42.11227 | -72.79748 | 39897 ft | 413 kts | 240° |
| 2026-04-13 21:14 | 42.07765 | -72.85936 | 39906 ft | 414 kts | 237° |
| 2026-04-13 21:15 | 42.04219 | -72.92047 | 39912 ft | 414 kts | 236° |
| 2026-04-13 21:15 | 42.00648 | -72.98154 | 39917 ft | 418 kts | 237° |
| 2026-04-13 21:16 | 41.97032 | -73.04322 | 39933 ft | 421 kts | 237° |
| 2026-04-13 21:16 | 41.93402 | -73.10493 | 39928 ft | 419 kts | 236° |
| 2026-04-13 21:17 | 41.89773 | -73.16621 | 39950 ft | 419 kts | 236° |
| 2026-04-13 21:17 | 41.86143 | -73.22743 | 39963 ft | 419 kts | 236° |
| 2026-04-13 21:18 | 41.82511 | -73.28854 | 39956 ft | 419 kts | 236° |
| 2026-04-13 21:18 | 41.78867 | -73.34973 | 39945 ft | 421 kts | 237° |
| 2026-04-13 21:19 | 41.75225 | -73.41098 | 39945 ft | 419 kts | 236° |
| 2026-04-13 21:19 | 41.71582 | -73.47208 | 39947 ft | 419 kts | 236° |
| 2026-04-13 21:20 | 41.67938 | -73.53303 | 39929 ft | 419 kts | 236° |
| 2026-04-13 21:20 | 41.64286 | -73.59400 | 39935 ft | 419 kts | 236° |
| 2026-04-13 21:21 | 41.60634 | -73.65486 | 39938 ft | 420 kts | 236° |
| 2026-04-13 21:21 | 41.56953 | -73.71598 | 39931 ft | 421 kts | 237° |
| 2026-04-13 21:22 | 41.53274 | -73.77706 | 39929 ft | 421 kts | 237° |
| 2026-04-13 21:22 | 41.49394 | -73.83613 | 39925 ft | 425 kts | 232° |
| 2026-04-13 21:23 | 41.45237 | -73.89233 | 39936 ft | 425 kts | 231° |
| 2026-04-13 21:23 | 41.41076 | -73.94854 | 39939 ft | 426 kts | 231° |
| 2026-04-13 21:24 | 41.36907 | -74.00466 | 39952 ft | 426 kts | 231° |
| 2026-04-13 21:24 | 41.32731 | -74.06064 | 39959 ft | 426 kts | 232° |
| 2026-04-13 21:25 | 41.28556 | -74.11663 | 39930 ft | 426 kts | 232° |
| 2026-04-13 21:25 | 41.24365 | -74.17272 | 39961 ft | 428 kts | 231° |
| 2026-04-13 21:26 | 41.20380 | -74.23100 | 39971 ft | 424 kts | 237° |
| 2026-04-13 21:26 | 41.16892 | -74.29301 | 39984 ft | 420 kts | 242° |
| 2026-04-13 21:27 | 41.13801 | -74.35852 | 39982 ft | 418 kts | 244° |
| 2026-04-13 21:27 | 41.10767 | -74.42402 | 39974 ft | 416 kts | 244° |
| 2026-04-13 21:28 | 41.07733 | -74.48965 | 39984 ft | 417 kts | 244° |
| 2026-04-13 21:28 | 41.04694 | -74.55529 | 39985 ft | 417 kts | 244° |
| 2026-04-13 21:29 | 41.01654 | -74.62083 | 39986 ft | 417 kts | 244° |
| 2026-04-13 21:29 | 40.98614 | -74.68624 | 39991 ft | 417 kts | 244° |
| 2026-04-13 21:30 | 40.95566 | -74.75167 | 39983 ft | 418 kts | 244° |
| 2026-04-13 21:30 | 40.92499 | -74.81735 | 40000 ft | 420 kts | 244° |
| 2026-04-13 21:31 | 40.89421 | -74.88308 | 40009 ft | 420 kts | 244° |
| 2026-04-13 21:31 | 40.86337 | -74.94875 | 40009 ft | 420 kts | 244° |
| 2026-04-13 21:32 | 40.83252 | -75.01431 | 40011 ft | 420 kts | 244° |
| 2026-04-13 21:32 | 40.80156 | -75.07994 | 40017 ft | 420 kts | 244° |
| 2026-04-13 21:33 | 40.77064 | -75.14533 | 40007 ft | 420 kts | 244° |
| 2026-04-13 21:33 | 40.73964 | -75.21083 | 40014 ft | 420 kts | 244° |
| 2026-04-13 21:34 | 40.69303 | -75.30894 | 40017 ft | 420 kts | 244° |
| 2026-04-13 21:34 | 40.66201 | -75.37432 | 40019 ft | 420 kts | 245° |
| 2026-04-13 21:35 | 40.63306 | -75.44112 | 39798 ft | 421 kts | 246° |
| 2026-04-13 21:35 | 40.60407 | -75.50827 | 38633 ft | 423 kts | 246° |
| 2026-04-13 21:36 | 40.58950 | -75.54208 | 37853 ft | 425 kts | 246° |
| 2026-04-13 21:36 | 40.57493 | -75.57586 | 37228 ft | 423 kts | 246° |
| 2026-04-13 21:36 | 40.56039 | -75.60949 | 36667 ft | 421 kts | 245° |
| 2026-04-13 21:36 | 40.54593 | -75.64288 | 36131 ft | 419 kts | 245° |
| 2026-04-13 21:37 | 40.53151 | -75.67615 | 35538 ft | 418 kts | 245° |
| 2026-04-13 21:37 | 40.51712 | -75.70932 | 34972 ft | 417 kts | 245° |
| 2026-04-13 21:37 | 40.50276 | -75.74237 | 34394 ft | 416 kts | 244° |
| 2026-04-13 21:37 | 40.48839 | -75.77540 | 33774 ft | 415 kts | 244° |
| 2026-04-13 21:38 | 40.47385 | -75.80821 | 33133 ft | 415 kts | 243° |
| 2026-04-13 21:38 | 40.45820 | -75.84007 | 32553 ft | 415 kts | 240° |
| 2026-04-13 21:38 | 40.44139 | -75.87094 | 31979 ft | 415 kts | 238° |
| 2026-04-13 21:38 | 40.42350 | -75.90070 | 31393 ft | 415 kts | 235° |
| 2026-04-13 21:39 | 40.40446 | -75.92942 | 30693 ft | 419 kts | 233° |
| 2026-04-13 21:39 | 40.38418 | -75.95718 | 29889 ft | 423 kts | 230° |
| 2026-04-13 21:39 | 40.36307 | -75.98404 | 29126 ft | 420 kts | 230° |
| 2026-04-13 21:39 | 40.34217 | -76.01064 | 28503 ft | 419 kts | 230° |
| 2026-04-13 21:40 | 40.32128 | -76.03723 | 27866 ft | 418 kts | 230° |
| 2026-04-13 21:40 | 40.30037 | -76.06378 | 27248 ft | 418 kts | 230° |
| 2026-04-13 21:40 | 40.27937 | -76.09043 | 26854 ft | 419 kts | 229° |
| 2026-04-13 21:40 | 40.25844 | -76.11691 | 26346 ft | 417 kts | 229° |
| 2026-04-13 21:41 | 40.23765 | -76.14315 | 25897 ft | 413 kts | 229° |
| 2026-04-13 21:41 | 40.21705 | -76.16911 | 25451 ft | 410 kts | 230° |
| 2026-04-13 21:41 | 40.19655 | -76.19494 | 25028 ft | 406 kts | 230° |
| 2026-04-13 21:41 | 40.17625 | -76.22051 | 24596 ft | 404 kts | 230° |
| 2026-04-13 21:42 | 40.15609 | -76.24588 | 24186 ft | 401 kts | 230° |
| 2026-04-13 21:42 | 40.13673 | -76.27189 | 23755 ft | 396 kts | 233° |
| 2026-04-13 21:42 | 40.11916 | -76.29937 | 23280 ft | 391 kts | 238° |
| 2026-04-13 21:42 | 40.10343 | -76.32814 | 22818 ft | 386 kts | 242° |
| 2026-04-13 21:43 | 40.08934 | -76.35785 | 22364 ft | 383 kts | 243° |
| 2026-04-13 21:43 | 40.07555 | -76.38770 | 21988 ft | 383 kts | 243° |
| 2026-04-13 21:43 | 40.06178 | -76.41752 | 21572 ft | 381 kts | 243° |
| 2026-04-13 21:43 | 40.05272 | -76.43714 | 21301 ft | 379 kts | 243° |
| 2026-04-13 21:44 | 40.03913 | -76.46656 | 20892 ft | 377 kts | 243° |
| 2026-04-13 21:44 | 40.02560 | -76.49579 | 20484 ft | 375 kts | 243° |
| 2026-04-13 21:44 | 40.01211 | -76.52486 | 20069 ft | 373 kts | 243° |
| 2026-04-13 21:44 | 39.99872 | -76.55367 | 19658 ft | 371 kts | 243° |
| 2026-04-13 21:45 | 39.98110 | -76.59168 | 19110 ft | 368 kts | 243° |
| 2026-04-13 21:45 | 39.96786 | -76.62019 | 18697 ft | 366 kts | 243° |
| 2026-04-13 21:45 | 39.95894 | -76.63939 | 18436 ft | 365 kts | 243° |
| 2026-04-13 21:45 | 39.94579 | -76.66765 | 17990 ft | 364 kts | 243° |
| 2026-04-13 21:46 | 39.93268 | -76.69580 | 17569 ft | 361 kts | 243° |
| 2026-04-13 21:46 | 39.91968 | -76.72367 | 17173 ft | 359 kts | 243° |
| 2026-04-13 21:46 | 39.90674 | -76.75137 | 16775 ft | 356 kts | 243° |
| 2026-04-13 21:46 | 39.89388 | -76.77893 | 16389 ft | 354 kts | 243° |
| 2026-04-13 21:47 | 39.88110 | -76.80626 | 15992 ft | 352 kts | 243° |
| 2026-04-13 21:47 | 39.86837 | -76.83346 | 15592 ft | 350 kts | 243° |
| 2026-04-13 21:47 | 39.85573 | -76.86044 | 15199 ft | 348 kts | 243° |
| 2026-04-13 21:47 | 39.84316 | -76.88731 | 14834 ft | 346 kts | 243° |
| 2026-04-13 21:48 | 39.83062 | -76.91405 | 14439 ft | 345 kts | 243° |
| 2026-04-13 21:48 | 39.81812 | -76.94067 | 14044 ft | 343 kts | 243° |
| 2026-04-13 21:48 | 39.80568 | -76.96712 | 13626 ft | 342 kts | 243° |
| 2026-04-13 21:48 | 39.79331 | -76.99344 | 13215 ft | 340 kts | 243° |
| 2026-04-13 21:49 | 39.78105 | -77.01951 | 12807 ft | 337 kts | 243° |
| 2026-04-13 21:49 | 39.76895 | -77.04519 | 12375 ft | 336 kts | 243° |
| 2026-04-13 21:49 | 39.75662 | -77.07136 | 11946 ft | 334 kts | 243° |
| 2026-04-13 21:49 | 39.74466 | -77.09672 | 11526 ft | 332 kts | 242° |
| 2026-04-13 21:50 | 39.73261 | -77.12224 | 11146 ft | 330 kts | 242° |
| 2026-04-13 21:50 | 39.72063 | -77.14757 | 10751 ft | 328 kts | 242° |
| 2026-04-13 21:50 | 39.70870 | -77.17279 | 10365 ft | 326 kts | 242° |
| 2026-04-13 21:50 | 39.69686 | -77.19774 | 10021 ft | 320 kts | 241° |
| 2026-04-13 21:51 | 39.68419 | -77.22061 | 9881 ft | 300 kts | 235° |
| 2026-04-13 21:51 | 39.67081 | -77.24011 | 9931 ft | 282 kts | 230° |
| 2026-04-13 21:51 | 39.65684 | -77.25744 | 9934 ft | 275 kts | 229° |
| 2026-04-13 21:51 | 39.64283 | -77.27439 | 9995 ft | 275 kts | 229° |
| 2026-04-13 21:52 | 39.62883 | -77.29127 | 9984 ft | 274 kts | 229° |
| 2026-04-13 21:52 | 39.61485 | -77.30810 | 9940 ft | 275 kts | 229° |
| 2026-04-13 21:52 | 39.60081 | -77.32499 | 9580 ft | 275 kts | 228° |
| 2026-04-13 21:52 | 39.58682 | -77.34177 | 9238 ft | 272 kts | 228° |
| 2026-04-13 21:53 | 39.57295 | -77.35833 | 9009 ft | 267 kts | 227° |
| 2026-04-13 21:53 | 39.55889 | -77.37340 | 8981 ft | 259 kts | 224° |
| 2026-04-13 21:53 | 39.54506 | -77.38799 | 8985 ft | 255 kts | 225° |
| 2026-04-13 21:53 | 39.53138 | -77.40246 | 8984 ft | 252 kts | 224° |
| 2026-04-13 21:54 | 39.51782 | -77.41678 | 8988 ft | 251 kts | 224° |
| 2026-04-13 21:54 | 39.50429 | -77.43111 | 8989 ft | 250 kts | 224° |
| 2026-04-13 21:54 | 39.49083 | -77.44533 | 8987 ft | 250 kts | 225° |
| 2026-04-13 21:54 | 39.47739 | -77.45956 | 8993 ft | 250 kts | 224° |
| 2026-04-13 21:55 | 39.46151 | -77.47125 | 8972 ft | 275 kts | 199° |
| 2026-04-13 21:55 | 39.44215 | -77.47041 | 8917 ft | 290 kts | 167° |
| 2026-04-13 21:55 | 39.42331 | -77.46041 | 8586 ft | 292 kts | 166° |
| 2026-04-13 21:55 | 39.40374 | -77.45597 | 8243 ft | 283 kts | 182° |
| 2026-04-13 21:56 | 39.38415 | -77.45478 | 7924 ft | 281 kts | 184° |
| 2026-04-13 21:56 | 39.36470 | -77.45418 | 7603 ft | 279 kts | 185° |
| 2026-04-13 21:56 | 39.34528 | -77.45406 | 7291 ft | 278 kts | 186° |
| 2026-04-13 21:56 | 39.32590 | -77.45416 | 7008 ft | 278 kts | 186° |
| 2026-04-13 21:57 | 39.30661 | -77.45438 | 6666 ft | 278 kts | 186° |
| 2026-04-13 21:57 | 39.28729 | -77.45465 | 6294 ft | 277 kts | 186° |
| 2026-04-13 21:57 | 39.26801 | -77.45494 | 5930 ft | 277 kts | 186° |
| 2026-04-13 21:57 | 39.24876 | -77.45524 | 5573 ft | 276 kts | 186° |
| 2026-04-13 21:58 | 39.22962 | -77.45552 | 5207 ft | 275 kts | 186° |
| 2026-04-13 21:58 | 39.21053 | -77.45579 | 4851 ft | 274 kts | 186° |
| 2026-04-13 21:58 | 39.19155 | -77.45608 | 4514 ft | 272 kts | 186° |
| 2026-04-13 21:58 | 39.17264 | -77.45636 | 4147 ft | 270 kts | 186° |
| 2026-04-13 21:59 | 39.15397 | -77.45663 | 3756 ft | 266 kts | 186° |
| 2026-04-13 21:59 | 39.13572 | -77.45689 | 3442 ft | 259 kts | 185° |
| 2026-04-13 21:59 | 39.11798 | -77.45713 | 3094 ft | 251 kts | 186° |
| 2026-04-13 21:59 | 39.10092 | -77.45736 | 2759 ft | 239 kts | 186° |
| 2026-04-13 22:00 | 39.08465 | -77.45760 | 2493 ft | 229 kts | 186° |
| 2026-04-13 22:00 | 39.06900 | -77.45784 | 2199 ft | 221 kts | 186° |
| 2026-04-13 22:00 | 39.05403 | -77.45804 | 1946 ft | 207 kts | 186° |
| 2026-04-13 22:00 | 39.04021 | -77.45824 | 1688 ft | 192 kts | 185° |
| 2026-04-13 22:01 | 39.02729 | -77.45843 | 1415 ft | 180 kts | 185° |
| 2026-04-13 22:01 | 39.01522 | -77.45864 | 1156 ft | 165 kts | 185° |
| 2026-04-13 22:01 | 39.00429 | -77.45886 | 924 ft | 149 kts | 184° |
| 2026-04-13 22:01 | 38.99424 | -77.45876 | 750 ft | 143 kts | 184° |
| 2026-04-13 22:02 | 38.98435 | -77.45910 | 604 ft | 141 kts | 184° |
| 2026-04-13 22:02 | 38.97455 | -77.45922 | 405 ft | 141 kts | 182° |
| 2026-04-13 22:02 | 38.96495 | -77.45935 | 310 ft | 134 kts | 182° |
| 2026-04-13 22:02 | 38.95758 | -77.45952 | 311 ft | 74 kts | 181° |
| 2026-04-13 22:03 | 38.95356 | -77.45957 | 310 ft | 53 kts | 180° |
| 2026-04-13 22:03 | 38.95103 | -77.45951 | 310 ft | 29 kts | 171° |
| 2026-04-13 22:03 | 38.94943 | -77.45874 | 310 ft | 18 kts | 149° |
| 2026-04-13 22:03 | 38.94902 | -77.45843 | 308 ft | 0 kts | 149° |
| 2026-04-13 22:04 | 38.94894 | -77.45836 | 310 ft | 4 kts | 149° |
| 2026-04-13 22:04 | 38.94850 | -77.45803 | 311 ft | 11 kts | 149° |
| 2026-04-13 22:04 | 38.94780 | -77.45737 | 310 ft | 14 kts | 130° |
| 2026-04-13 22:04 | 38.94764 | -77.45637 | 311 ft | 11 kts | 58° |
| 2026-04-13 22:05 | 38.94849 | -77.45608 | 310 ft | 15 kts | 2° |
| 2026-04-13 22:05 | 38.94955 | -77.45603 | 309 ft | 9 kts | 1° |
| 2026-04-13 22:05 | 38.95003 | -77.45593 | 310 ft | 8 kts | 35° |
| 2026-04-13 22:05 | 38.95023 | -77.45511 | 309 ft | 12 kts | 88° |
| 2026-04-13 22:06 | 38.95022 | -77.45391 | 309 ft | 15 kts | 91° |
| 2026-04-13 22:06 | 38.95021 | -77.45244 | 309 ft | 18 kts | 91° |
| 2026-04-13 22:06 | 38.95019 | -77.45111 | 309 ft | 0 kts | 91° |
| 2026-04-13 22:06 | 38.95019 | -77.45098 | 309 ft | 3 kts | 91° |
| 2026-04-13 22:07 | 38.95018 | -77.45051 | 309 ft | 7 kts | 91° |
| 2026-04-13 22:07 | 38.94997 | -77.45010 | 309 ft | 5 kts | 162° |
| 2026-04-13 22:07 | 38.94958 | -77.45014 | 309 ft | 3 kts | 193° |
| 2026-04-13 22:07 | 38.94940 | -77.45020 | 310 ft | 1 kts | 197° |
| 2026-04-13 22:08 | 38.94935 | -77.45022 | 309 ft | 0 kts | 197° |